Observation data for Goodnight on 08/13/2019      Previous  Date       Current Mesonet Observations  Soil Data  Daily Summary Page  Observations in Plain Language
KGO1 130500Z 04016KT 23/19 A3005 RMK A01 T02250194  RH  082%=      5-min Rain = 0
KGO1 130501Z 04018G23KT 23/19 A3005 RMK A01 T02250194  RH  083%=      5-min Rain = 0
KGO1 130502Z 04017KT 23/20 A3005 RMK A01 T02250195  RH  083%=      5-min Rain = 0
KGO1 130503Z 04018KT 23/20 A3005 RMK A01 T02250195  RH  083%=      5-min Rain = 0
KGO1 130504Z 04017KT 22/20 A3005 RMK A01 T02240195  RH  084%=      5-min Rain = 0
KGO1 130505Z 04017KT 22/20 A3005 RMK A01 T02240196  RH  084%=      5-min Rain = 0
KGO1 130506Z 04017KT 22/20 A3005 RMK A01 T02240195  RH  084%=      5-min Rain = 0
KGO1 130507Z 04015G21KT 22/20 A3005 RMK A01 T02240195  RH  084%=      5-min Rain = 0
KGO1 130508Z 04016KT 22/20 A3005 RMK A01 T02240195  RH  084%=      5-min Rain = 0
KGO1 130509Z 04015KT 22/20 A3005 RMK A01 T02240195  RH  084%=      5-min Rain = 0
KGO1 130510Z 05015G21KT 22/20 A3005 RMK A01 T02240195  RH  084%=      5-min Rain = 0
KGO1 130511Z 05014KT 22/19 A3006 RMK A01 T02240194  RH  083%=      5-min Rain = 0
KGO1 130512Z 05013KT 23/20 A3006 RMK A01 T02250195  RH  083%=      5-min Rain = 0
KGO1 130513Z 05014KT 23/19 A3007 RMK A01 T02250194  RH  083%=      5-min Rain = 0
KGO1 130514Z 05011KT 23/19 A3007 RMK A01 T02250193  RH  082%=      5-min Rain = 0
KGO1 130515Z 06008KT 23/19 A3008 RMK A01 T02260194  RH  082%=      5-min Rain = 0
KGO1 130516Z 06006KT 23/19 A3008 RMK A01 T02260193  RH  082%=      5-min Rain = 0
KGO1 130517Z 07003KT 23/19 A3009 RMK A01 T02270193  RH  081%=      5-min Rain = 0
KGO1 130518Z 07005KT 23/19 A3009 RMK A01 T02270193  RH  081%=      5-min Rain = 0
KGO1 130519Z 07007KT 23/19 A3009 RMK A01 T02270193  RH  081%=      5-min Rain = 0
KGO1 130520Z 06009KT 23/19 A3008 RMK A01 T02280193  RH  081%=      5-min Rain = 0
KGO1 130521Z 06011KT 23/19 A3007 RMK A01 T02280193  RH  081%=      5-min Rain = 0
KGO1 130522Z 06015KT 23/20 A3007 RMK A01 T02280195  RH  082%=      5-min Rain = 0.02
KGO1 130523Z 06017KT 22/20 A3006 RMK A01 T02240197  RH  084%=      5-min Rain = 0.04
KGO1 130524Z 06018G24KT 22/20 A3006 RMK A01 T02200197  RH  087%=      5-min Rain = 0.04
KGO1 130525Z 06021KT 22/20 A3005 RMK A01 T02170198  RH  089%=      5-min Rain = 0.03
KGO1 130526Z 07023KT 22/20 A3005 RMK A01 T02150198  RH  090%=      5-min Rain = 0.03
KGO1 130527Z 07022KT 22/20 A3004 RMK A01 T02150198  RH  090%=      5-min Rain = 0.03
KGO1 130528Z 07020G25KT 21/20 A3004 RMK A01 T02140199  RH  091%=      5-min Rain = 0.04
KGO1 130529Z 07018KT 21/20 A3004 RMK A01 T02130200  RH  092%=      5-min Rain = 0.02
KGO1 130530Z 07018KT 21/20 A3003 RMK A01 T02120201  RH  093%=      5-min Rain = 0.02
KGO1 130531Z 06020G26KT 21/20 A3003 RMK A01 T02110202  RH  094%=      5-min Rain = 0.01
KGO1 130532Z 07018G24KT 21/20 A3003 RMK A01 T02100201  RH  094%=      5-min Rain = 0.01
KGO1 130533Z 08015G21KT 21/20 A3003 RMK A01 T02100201  RH  094%=      5-min Rain = 0
KGO1 130534Z 08016KT 21/20 A3003 RMK A01 T02110200  RH  094%=      5-min Rain = 0
KGO1 130535Z 09017KT 21/20 A3003 RMK A01 T02120201  RH  094%=      5-min Rain = 0
KGO1 130536Z 09018KT 21/20 A3004 RMK A01 T02120201  RH  093%=      5-min Rain = 0
KGO1 130537Z 10017KT 21/20 A3004 RMK A01 T02130201  RH  093%=      5-min Rain = 0
KGO1 130538Z 09018KT 21/20 A3004 RMK A01 T02130200  RH  092%=      5-min Rain = 0
KGO1 130539Z 09017KT 21/20 A3004 RMK A01 T02130200  RH  092%=      5-min Rain = 0
KGO1 130540Z 09017KT 21/20 A3004 RMK A01 T02140200  RH  092%=      5-min Rain = 0
KGO1 130541Z 09015KT 21/20 A3004 RMK A01 T02140200  RH  092%=      5-min Rain = 0
KGO1 130542Z 09015KT 21/20 A3004 RMK A01 T02140200  RH  092%=      5-min Rain = 0
KGO1 130543Z 09014KT 21/20 A3004 RMK A01 T02140201  RH  092%=      5-min Rain = 0
KGO1 130544Z 08013KT 21/20 A3004 RMK A01 T02130201  RH  092%=      5-min Rain = 0
KGO1 130545Z 09013KT 21/20 A3004 RMK A01 T02130200  RH  092%=      5-min Rain = 0
KGO1 130546Z 09012KT 21/20 A3004 RMK A01 T02130201  RH  093%=      5-min Rain = 0
KGO1 130547Z 09012KT 21/20 A3004 RMK A01 T02130202  RH  093%=      5-min Rain = 0
KGO1 130548Z 09013KT 21/20 A3004 RMK A01 T02130201  RH  093%=      5-min Rain = 0
KGO1 130549Z 09013KT 21/20 A3004 RMK A01 T02130201  RH  093%=      5-min Rain = 0
KGO1 130550Z 09013KT 21/20 A3004 RMK A01 T02130201  RH  093%=      5-min Rain = 0
KGO1 130551Z 09013KT 21/20 A3004 RMK A01 T02130202  RH  093%=      5-min Rain = 0
KGO1 130552Z 09015KT 21/20 A3004 RMK A01 T02120202  RH  094%=      5-min Rain = 0
KGO1 130553Z 09013KT 21/20 A3004 RMK A01 T02120201  RH  093%=      5-min Rain = 0
KGO1 130554Z 09013KT 21/20 A3004 RMK A01 T02120202  RH  094%=      5-min Rain = 0
KGO1 130555Z 09015KT 21/20 A3004 RMK A01 T02120200  RH  093%=      5-min Rain = 0
KGO1 130556Z 09016G21KT 21/20 A3004 RMK A01 T02120200  RH  093%=      5-min Rain = 0
KGO1 130557Z 09015KT 21/20 A3004 RMK A01 T02120200  RH  093%=      5-min Rain = 0
KGO1 130558Z 09015G21KT 21/20 A3004 RMK A01 T02120200  RH  093%=      5-min Rain = 0
KGO1 130559Z 09015KT 21/20 A3004 RMK A01 T02120200  RH  093%=      5-min Rain = 0
KGO1 130600Z 09016KT 21/20 A3004 RMK A01 T02120201  RH  093%=      5-min Rain = 0
KGO1 130601Z 09016KT 21/20 A3004 RMK A01 T02120201  RH  093%=      5-min Rain = 0
KGO1 130602Z 09015KT 21/20 A3004 RMK A01 T02120201  RH  093%=      5-min Rain = 0
KGO1 130603Z 09016KT 21/20 A3004 RMK A01 T02120202  RH  094%=      5-min Rain = 0
KGO1 130604Z 09018KT 21/20 A3004 RMK A01 T02120201  RH  093%=      5-min Rain = 0
KGO1 130605Z 08016KT 21/20 A3004 RMK A01 T02120200  RH  092%=      5-min Rain = 0
KGO1 130606Z 08017G24KT 21/20 A3004 RMK A01 T02130200  RH  093%=      5-min Rain = 0
KGO1 130607Z 08016G22KT 21/20 A3004 RMK A01 T02130200  RH  092%=      5-min Rain = 0
KGO1 130608Z 09015KT 21/20 A3004 RMK A01 T02130201  RH  093%=      5-min Rain = 0
KGO1 130609Z 08017G22KT 21/20 A3004 RMK A01 T02130201  RH  093%=      5-min Rain = 0
KGO1 130610Z 09015G20KT 21/20 A3004 RMK A01 T02130201  RH  093%=      5-min Rain = 0
KGO1 130611Z 09017KT 21/20 A3004 RMK A01 T02120201  RH  093%=      5-min Rain = 0
KGO1 130612Z 09016KT 21/20 A3004 RMK A01 T02120201  RH  093%=      5-min Rain = 0
KGO1 130613Z 09017KT 21/20 A3004 RMK A01 T02120201  RH  093%=      5-min Rain = 0
KGO1 130614Z 08017KT 21/20 A3004 RMK A01 T02120201  RH  093%=      5-min Rain = 0
KGO1 130615Z 08017G22KT 21/20 A3004 RMK A01 T02120201  RH  093%=      5-min Rain = 0
KGO1 130616Z 08015KT 21/20 A3004 RMK A01 T02110201  RH  094%=      5-min Rain = 0
KGO1 130617Z 09016KT 21/20 A3004 RMK A01 T02110202  RH  094%=      5-min Rain = 0
KGO1 130618Z 08017KT 21/20 A3004 RMK A01 T02110202  RH  095%=      5-min Rain = 0
KGO1 130619Z 09015G20KT 21/20 A3003 RMK A01 T02110202  RH  095%=      5-min Rain = 0
KGO1 130620Z 08015G20KT 21/20 A3004 RMK A01 T02100202  RH  095%=      5-min Rain = 0
KGO1 130621Z 08015KT 21/20 A3004 RMK A01 T02100202  RH  095%=      5-min Rain = 0
KGO1 130622Z 08016KT 21/20 A3004 RMK A01 T02100203  RH  095%=      5-min Rain = 0
KGO1 130623Z 08015KT 21/20 A3004 RMK A01 T02100202  RH  095%=      5-min Rain = 0
KGO1 130624Z 08014KT 21/20 A3004 RMK A01 T02100203  RH  096%=      5-min Rain = 0
KGO1 130625Z 08016KT 21/20 A3004 RMK A01 T02100203  RH  096%=      5-min Rain = 0
KGO1 130626Z 08017G22KT 21/20 A3004 RMK A01 T02100202  RH  095%=      5-min Rain = 0
KGO1 130627Z 08016G21KT 21/20 A3004 RMK A01 T02100202  RH  095%=      5-min Rain = 0
KGO1 130628Z 08015KT 21/20 A3004 RMK A01 T02100202  RH  095%=      5-min Rain = 0
KGO1 130629Z 08014KT 21/20 A3004 RMK A01 T02110202  RH  095%=      5-min Rain = 0
KGO1 130630Z 08014G19KT 21/20 A3004 RMK A01 T02110202  RH  095%=      5-min Rain = 0
KGO1 130631Z 08013KT 21/20 A3003 RMK A01 T02100202  RH  095%=      5-min Rain = 0
KGO1 130632Z 08014KT 21/20 A3003 RMK A01 T02100202  RH  095%=      5-min Rain = 0
KGO1 130633Z 07013G18KT 21/20 A3003 RMK A01 T02100202  RH  095%=      5-min Rain = 0
KGO1 130634Z 07014KT 21/20 A3003 RMK A01 T02100202  RH  095%=      5-min Rain = 0
KGO1 130635Z 08014KT 21/20 A3003 RMK A01 T02110202  RH  095%=      5-min Rain = 0
KGO1 130636Z 08013G20KT 21/20 A3003 RMK A01 T02110202  RH  095%=      5-min Rain = 0
KGO1 130637Z 08014KT 21/20 A3004 RMK A01 T02110203  RH  095%=      5-min Rain = 0
KGO1 130638Z 08012KT 21/20 A3003 RMK A01 T02100202  RH  095%=      5-min Rain = 0
KGO1 130639Z 08013KT 21/20 A3003 RMK A01 T02100202  RH  095%=      5-min Rain = 0
KGO1 130640Z 08010KT 21/20 A3003 RMK A01 T02090203  RH  096%=      5-min Rain = 0
KGO1 130641Z 08014KT 21/20 A3003 RMK A01 T02090203  RH  096%=      5-min Rain = 0
KGO1 130642Z 08013KT 21/20 A3003 RMK A01 T02090203  RH  096%=      5-min Rain = 0
KGO1 130643Z 08014KT 21/20 A3003 RMK A01 T02090203  RH  096%=      5-min Rain = 0
KGO1 130644Z 08013KT 21/20 A3003 RMK A01 T02090203  RH  096%=      5-min Rain = 0
KGO1 130645Z 08014G20KT 21/20 A3003 RMK A01 T02090203  RH  096%=      5-min Rain = 0
KGO1 130646Z 08013KT 21/20 A3003 RMK A01 T02090203  RH  096%=      5-min Rain = 0
KGO1 130647Z 08012KT 21/20 A3003 RMK A01 T02090202  RH  096%=      5-min Rain = 0
KGO1 130648Z 08012KT 21/20 A3003 RMK A01 T02090203  RH  096%=      5-min Rain = 0
KGO1 130649Z 08012KT 21/20 A3003 RMK A01 T02090203  RH  096%=      5-min Rain = 0
KGO1 130650Z 08014KT 21/20 A3003 RMK A01 T02090202  RH  096%=      5-min Rain = 0
KGO1 130651Z 08013KT 21/20 A3003 RMK A01 T02090202  RH  096%=      5-min Rain = 0
KGO1 130652Z 08015KT 21/20 A3003 RMK A01 T02100202  RH  096%=      5-min Rain = 0
KGO1 130653Z 08013G18KT 21/20 A3003 RMK A01 T02100202  RH  095%=      5-min Rain = 0
KGO1 130654Z 09013KT 21/20 A3003 RMK A01 T02100202  RH  095%=      5-min Rain = 0
KGO1 130655Z 09014KT 21/20 A3003 RMK A01 T02100203  RH  096%=      5-min Rain = 0
KGO1 130656Z 09012KT 21/20 A3003 RMK A01 T02100203  RH  096%=      5-min Rain = 0
KGO1 130657Z 09015KT 21/20 A3003 RMK A01 T02100203  RH  096%=      5-min Rain = 0
KGO1 130658Z 08014KT 21/20 A3003 RMK A01 T02090202  RH  096%=      5-min Rain = 0
KGO1 130659Z 08013KT 21/20 A3003 RMK A01 T02100202  RH  096%=      5-min Rain = 0
KGO1 130700Z 09014KT 21/20 A3003 RMK A01 T02100202  RH  096%=      5-min Rain = 0
KGO1 130701Z 09013KT 21/20 A3003 RMK A01 T02100203  RH  096%=      5-min Rain = 0
KGO1 130702Z 09014G19KT 21/20 A3003 RMK A01 T02100202  RH  096%=      5-min Rain = 0
KGO1 130703Z 08014KT 21/20 A3003 RMK A01 T02090202  RH  096%=      5-min Rain = 0
KGO1 130704Z 09015KT 21/20 A3003 RMK A01 T02100203  RH  096%=      5-min Rain = 0
KGO1 130705Z 09015KT 21/20 A3003 RMK A01 T02100202  RH  096%=      5-min Rain = 0
KGO1 130706Z 09015KT 21/20 A3003 RMK A01 T02100202  RH  095%=      5-min Rain = 0
KGO1 130707Z 09015KT 21/20 A3003 RMK A01 T02100202  RH  095%=      5-min Rain = 0
KGO1 130708Z 09014KT 21/20 A3003 RMK A01 T02110202  RH  095%=      5-min Rain = 0
KGO1 130709Z 08014KT 21/20 A3003 RMK A01 T02110202  RH  094%=      5-min Rain = 0
KGO1 130710Z 09014KT 21/20 A3003 RMK A01 T02120203  RH  095%=      5-min Rain = 0
KGO1 130711Z 09012KT 21/20 A3003 RMK A01 T02110203  RH  095%=      5-min Rain = 0
KGO1 130712Z 08011KT 21/20 A3003 RMK A01 T02110203  RH  095%=      5-min Rain = 0
KGO1 130713Z 09011KT 21/20 A3003 RMK A01 T02110203  RH  095%=      5-min Rain = 0
KGO1 130714Z 08012KT 21/20 A3003 RMK A01 T02100203  RH  096%=      5-min Rain = 0
KGO1 130715Z 08010KT 21/20 A3003 RMK A01 T02100203  RH  095%=      5-min Rain = 0
KGO1 130716Z 08010KT 21/20 A3003 RMK A01 T02110203  RH  095%=      5-min Rain = 0
KGO1 130717Z 08009KT 21/20 A3003 RMK A01 T02110203  RH  095%=      5-min Rain = 0
KGO1 130718Z 08010KT 21/20 A3003 RMK A01 T02110203  RH  095%=      5-min Rain = 0
KGO1 130719Z 08010KT 21/20 A3003 RMK A01 T02110203  RH  095%=      5-min Rain = 0
KGO1 130720Z 08011KT 21/20 A3003 RMK A01 T02110204  RH  095%=      5-min Rain = 0
KGO1 130721Z 08011KT 21/20 A3003 RMK A01 T02110204  RH  095%=      5-min Rain = 0
KGO1 130722Z 08010KT 21/20 A3003 RMK A01 T02110204  RH  096%=      5-min Rain = 0
KGO1 130723Z 08010KT 21/20 A3003 RMK A01 T02110204  RH  096%=      5-min Rain = 0
KGO1 130724Z 08010KT 21/21 A3003 RMK A01 T02110205  RH  096%=      5-min Rain = 0
KGO1 130725Z 08011KT 21/20 A3003 RMK A01 T02100204  RH  096%=      5-min Rain = 0
KGO1 130726Z 08012KT 21/20 A3003 RMK A01 T02100204  RH  096%=      5-min Rain = 0
KGO1 130727Z 08010G15KT 21/21 A3003 RMK A01 T02110205  RH  096%=      5-min Rain = 0
KGO1 130728Z 08009KT 21/21 A3003 RMK A01 T02100205  RH  097%=      5-min Rain = 0
KGO1 130729Z 08011KT 21/21 A3003 RMK A01 T02100205  RH  097%=      5-min Rain = 0
KGO1 130730Z 08009KT 21/21 A3003 RMK A01 T02100205  RH  097%=      5-min Rain = 0
KGO1 130731Z 08010KT 21/21 A3003 RMK A01 T02100205  RH  097%=      5-min Rain = 0
KGO1 130732Z 08010KT 21/21 A3003 RMK A01 T02100205  RH  097%=      5-min Rain = 0
KGO1 130733Z 08011KT 21/21 A3003 RMK A01 T02100205  RH  097%=      5-min Rain = 0
KGO1 130734Z 07010KT 21/20 A3003 RMK A01 T02100204  RH  097%=      5-min Rain = 0
KGO1 130735Z 07011KT 21/20 A3003 RMK A01 T02100204  RH  096%=      5-min Rain = 0
KGO1 130736Z 07011KT 21/20 A3003 RMK A01 T02100204  RH  096%=      5-min Rain = 0
KGO1 130737Z 06007KT 21/21 A3003 RMK A01 T02110205  RH  096%=      5-min Rain = 0
KGO1 130738Z 06009KT 21/21 A3004 RMK A01 T02100205  RH  097%=      5-min Rain = 0
KGO1 130739Z 06009KT 21/21 A3004 RMK A01 T02100205  RH  097%=      5-min Rain = 0
KGO1 130740Z 06008KT 21/21 A3004 RMK A01 T02100205  RH  097%=      5-min Rain = 0
KGO1 130741Z 06009KT 21/21 A3003 RMK A01 T02100205  RH  097%=      5-min Rain = 0
KGO1 130742Z 05008KT 21/21 A3003 RMK A01 T02100205  RH  097%=      5-min Rain = 0
KGO1 130743Z 06009KT 21/20 A3004 RMK A01 T02090204  RH  097%=      5-min Rain = 0
KGO1 130744Z 07009KT 21/21 A3004 RMK A01 T02100205  RH  097%=      5-min Rain = 0
KGO1 130745Z 07009G14KT 21/20 A3004 RMK A01 T02100204  RH  097%=      5-min Rain = 0
KGO1 130746Z 07011KT 21/21 A3003 RMK A01 T02100205  RH  097%=      5-min Rain = 0
KGO1 130747Z 07010KT 21/21 A3003 RMK A01 T02110205  RH  096%=      5-min Rain = 0
KGO1 130748Z 06011KT 21/20 A3003 RMK A01 T02110204  RH  096%=      5-min Rain = 0
KGO1 130749Z 07011KT 21/21 A3003 RMK A01 T02110205  RH  096%=      5-min Rain = 0
KGO1 130750Z 07010KT 21/21 A3003 RMK A01 T02120205  RH  096%=      5-min Rain = 0
KGO1 130751Z 07009G14KT 21/20 A3003 RMK A01 T02110204  RH  096%=      5-min Rain = 0
KGO1 130752Z 08009KT 21/21 A3003 RMK A01 T02120205  RH  096%=      5-min Rain = 0
KGO1 130753Z 08009KT 21/21 A3003 RMK A01 T02120205  RH  096%=      5-min Rain = 0
KGO1 130754Z 08012KT 21/21 A3003 RMK A01 T02120205  RH  096%=      5-min Rain = 0
KGO1 130755Z 07011KT 21/20 A3003 RMK A01 T02120204  RH  095%=      5-min Rain = 0
KGO1 130756Z 08013G19KT 21/20 A3003 RMK A01 T02130204  RH  095%=      5-min Rain = 0
KGO1 130757Z 08014G19KT 21/20 A3003 RMK A01 T02130204  RH  094%=      5-min Rain = 0
KGO1 130758Z 08011KT 21/20 A3003 RMK A01 T02140204  RH  094%=      5-min Rain = 0
KGO1 130759Z 08010KT 21/20 A3003 RMK A01 T02140204  RH  094%=      5-min Rain = 0
KGO1 130800Z 08012KT 21/21 A3003 RMK A01 T02140205  RH  094%=      5-min Rain = 0
KGO1 130801Z 08011KT 21/21 A3003 RMK A01 T02140205  RH  095%=      5-min Rain = 0
KGO1 130802Z 08012KT 21/21 A3003 RMK A01 T02140205  RH  094%=      5-min Rain = 0
KGO1 130803Z 08011KT 21/20 A3003 RMK A01 T02140204  RH  094%=      5-min Rain = 0
KGO1 130804Z 08012KT 22/20 A3003 RMK A01 T02150204  RH  094%=      5-min Rain = 0
KGO1 130805Z 08011KT 21/20 A3003 RMK A01 T02140204  RH  094%=      5-min Rain = 0
KGO1 130806Z 08011KT 22/20 A3003 RMK A01 T02150204  RH  094%=      5-min Rain = 0
KGO1 130807Z 08011G16KT 22/20 A3003 RMK A01 T02150204  RH  094%=      5-min Rain = 0
KGO1 130808Z 07010KT 22/20 A3003 RMK A01 T02150204  RH  094%=      5-min Rain = 0
KGO1 130809Z 07010KT 21/20 A3002 RMK A01 T02140204  RH  094%=      5-min Rain = 0
KGO1 130810Z 08013KT 21/21 A3002 RMK A01 T02140205  RH  094%=      5-min Rain = 0
KGO1 130811Z 08013KT 21/21 A3002 RMK A01 T02140205  RH  094%=      5-min Rain = 0
KGO1 130812Z 08012KT 22/21 A3002 RMK A01 T02150205  RH  094%=      5-min Rain = 0
KGO1 130813Z 08011G16KT 21/20 A3002 RMK A01 T02140204  RH  094%=      5-min Rain = 0
KGO1 130814Z 08010G17KT 22/21 A3002 RMK A01 T02150205  RH  094%=      5-min Rain = 0
KGO1 130815Z 08013G18KT 22/21 A3002 RMK A01 T02150205  RH  094%=      5-min Rain = 0
KGO1 130816Z 08012KT 21/20 A3002 RMK A01 T02140204  RH  094%=      5-min Rain = 0
KGO1 130817Z 09011KT 22/20 A3002 RMK A01 T02150204  RH  094%=      5-min Rain = 0
KGO1 130818Z 09011G17KT 22/21 A3002 RMK A01 T02150205  RH  094%=      5-min Rain = 0
KGO1 130819Z 08014KT 22/21 A3002 RMK A01 T02150205  RH  094%=      5-min Rain = 0
KGO1 130820Z 09013KT 22/20 A3002 RMK A01 T02150204  RH  094%=      5-min Rain = 0
KGO1 130821Z 09012KT 22/20 A3002 RMK A01 T02150204  RH  093%=      5-min Rain = 0
KGO1 130822Z 08012KT 22/20 A3002 RMK A01 T02150204  RH  093%=      5-min Rain = 0
KGO1 130823Z 09013KT 22/20 A3002 RMK A01 T02150204  RH  093%=      5-min Rain = 0
KGO1 130824Z 09014KT 22/20 A3002 RMK A01 T02150204  RH  093%=      5-min Rain = 0
KGO1 130825Z 09014KT 22/20 A3002 RMK A01 T02150203  RH  093%=      5-min Rain = 0
KGO1 130826Z 09014KT 22/20 A3002 RMK A01 T02150203  RH  093%=      5-min Rain = 0
KGO1 130827Z 09011KT 22/20 A3002 RMK A01 T02150204  RH  093%=      5-min Rain = 0
KGO1 130828Z 10013KT 22/20 A3002 RMK A01 T02160204  RH  093%=      5-min Rain = 0
KGO1 130829Z 09013G18KT 22/20 A3002 RMK A01 T02160203  RH  092%=      5-min Rain = 0
KGO1 130830Z 09013KT 22/20 A3002 RMK A01 T02160203  RH  092%=      5-min Rain = 0
KGO1 130831Z 09012KT 22/20 A3002 RMK A01 T02160203  RH  092%=      5-min Rain = 0
KGO1 130832Z 10012KT 22/20 A3002 RMK A01 T02160203  RH  092%=      5-min Rain = 0
KGO1 130833Z 10013KT 22/20 A3002 RMK A01 T02160203  RH  092%=      5-min Rain = 0
KGO1 130834Z 11012KT 22/20 A3002 RMK A01 T02160203  RH  092%=      5-min Rain = 0
KGO1 130835Z 11010KT 22/20 A3002 RMK A01 T02160203  RH  092%=      5-min Rain = 0
KGO1 130836Z 10011KT 22/20 A3002 RMK A01 T02160203  RH  093%=      5-min Rain = 0
KGO1 130837Z 12013KT 22/20 A3002 RMK A01 T02150202  RH  092%=      5-min Rain = 0
KGO1 130838Z 12011KT 22/20 A3002 RMK A01 T02160202  RH  092%=      5-min Rain = 0
KGO1 130839Z 11012KT 22/20 A3002 RMK A01 T02160202  RH  092%=      5-min Rain = 0
KGO1 130840Z 12012KT 22/20 A3002 RMK A01 T02160201  RH  091%=      5-min Rain = 0
KGO1 130841Z 12012KT 22/20 A3002 RMK A01 T02160202  RH  092%=      5-min Rain = 0
KGO1 130842Z 13012KT 22/20 A3002 RMK A01 T02160202  RH  092%=      5-min Rain = 0
KGO1 130843Z 14011KT 22/20 A3001 RMK A01 T02160202  RH  092%=      5-min Rain = 0
KGO1 130844Z 14009KT 22/20 A3001 RMK A01 T02150203  RH  093%=      5-min Rain = 0
KGO1 130845Z 15010KT 22/20 A3001 RMK A01 T02150203  RH  093%=      5-min Rain = 0
KGO1 130846Z 15010KT 21/20 A3001 RMK A01 T02140203  RH  093%=      5-min Rain = 0
KGO1 130847Z 15009KT 21/20 A3001 RMK A01 T02140204  RH  094%=      5-min Rain = 0
KGO1 130848Z 15010KT 21/20 A3001 RMK A01 T02140203  RH  094%=      5-min Rain = 0
KGO1 130849Z 15010KT 21/20 A3001 RMK A01 T02140203  RH  093%=      5-min Rain = 0
KGO1 130850Z 15010KT 21/20 A3001 RMK A01 T02140203  RH  093%=      5-min Rain = 0
KGO1 130851Z 16012KT 21/20 A3001 RMK A01 T02140202  RH  093%=      5-min Rain = 0
KGO1 130852Z 15010KT 21/20 A3001 RMK A01 T02140202  RH  093%=      5-min Rain = 0
KGO1 130853Z 15010KT 21/20 A3001 RMK A01 T02140202  RH  093%=      5-min Rain = 0
KGO1 130854Z 15009KT 21/20 A3001 RMK A01 T02140202  RH  093%=      5-min Rain = 0
KGO1 130855Z 15009KT 21/20 A3001 RMK A01 T02140202  RH  093%=      5-min Rain = 0
KGO1 130856Z 16008KT 21/20 A3001 RMK A01 T02140201  RH  093%=      5-min Rain = 0
KGO1 130857Z 17008KT 21/20 A3001 RMK A01 T02140204  RH  094%=      5-min Rain = 0
KGO1 130858Z 17008KT 21/20 A3001 RMK A01 T02130204  RH  095%=      5-min Rain = 0
KGO1 130859Z 17008KT 21/20 A3001 RMK A01 T02120204  RH  095%=      5-min Rain = 0
KGO1 130900Z 16008KT 21/20 A3001 RMK A01 T02120204  RH  095%=      5-min Rain = 0
KGO1 130901Z 16008KT 21/20 A3001 RMK A01 T02110203  RH  095%=      5-min Rain = 0
KGO1 130902Z 16009KT 21/20 A3001 RMK A01 T02110202  RH  095%=      5-min Rain = 0
KGO1 130903Z 16006KT 21/20 A3001 RMK A01 T02120202  RH  094%=      5-min Rain = 0
KGO1 130904Z 15008KT 21/20 A3001 RMK A01 T02120201  RH  093%=      5-min Rain = 0
KGO1 130905Z 14006KT 21/20 A3001 RMK A01 T02130201  RH  093%=      5-min Rain = 0
KGO1 130906Z 14006KT 21/20 A3001 RMK A01 T02130200  RH  092%=      5-min Rain = 0
KGO1 130907Z 15007KT 21/20 A3001 RMK A01 T02140201  RH  092%=      5-min Rain = 0
KGO1 130908Z 15007KT 21/20 A3002 RMK A01 T02140201  RH  093%=      5-min Rain = 0
KGO1 130909Z 15005KT 21/20 A3001 RMK A01 T02130200  RH  092%=      5-min Rain = 0
KGO1 130910Z 16005KT 21/20 A3001 RMK A01 T02140200  RH  092%=      5-min Rain = 0
KGO1 130911Z 17007KT 21/20 A3002 RMK A01 T02140201  RH  092%=      5-min Rain = 0
KGO1 130912Z 18006KT 21/20 A3002 RMK A01 T02130202  RH  093%=      5-min Rain = 0
KGO1 130913Z 18005KT 21/20 A3002 RMK A01 T02130203  RH  094%=      5-min Rain = 0
KGO1 130914Z 18006KT 21/20 A3002 RMK A01 T02120203  RH  095%=      5-min Rain = 0
KGO1 130915Z 19005KT 21/20 A3002 RMK A01 T02110203  RH  095%=      5-min Rain = 0
KGO1 130916Z 19005KT 21/20 A3002 RMK A01 T02120204  RH  095%=      5-min Rain = 0
KGO1 130917Z 18005KT 21/20 A3002 RMK A01 T02110203  RH  095%=      5-min Rain = 0
KGO1 130918Z 19005KT 21/20 A3002 RMK A01 T02110203  RH  096%=      5-min Rain = 0
KGO1 130919Z 19005KT 21/20 A3002 RMK A01 T02100203  RH  096%=      5-min Rain = 0
KGO1 130920Z 19004KT 21/20 A3002 RMK A01 T02100203  RH  096%=      5-min Rain = 0
KGO1 130921Z 20004KT 21/20 A3002 RMK A01 T02100204  RH  096%=      5-min Rain = 0
KGO1 130922Z 21004KT 21/20 A3002 RMK A01 T02100203  RH  096%=      5-min Rain = 0
KGO1 130923Z 23001KT 21/20 A3002 RMK A01 T02100203  RH  096%=      5-min Rain = 0
KGO1 130924Z 23001KT 21/20 A3002 RMK A01 T02100203  RH  096%=      5-min Rain = 0
KGO1 130925Z 23001KT 21/20 A3002 RMK A01 T02090203  RH  096%=      5-min Rain = 0
KGO1 130926Z 23000KT 21/20 A3002 RMK A01 T02090203  RH  096%=      5-min Rain = 0
KGO1 130927Z 24001KT 21/20 A3002 RMK A01 T02090203  RH  096%=      5-min Rain = 0
KGO1 130928Z 24002KT 21/20 A3002 RMK A01 T02090203  RH  096%=      5-min Rain = 0
KGO1 130929Z 24002KT 21/20 A3002 RMK A01 T02090203  RH  096%=      5-min Rain = 0
KGO1 130930Z 24002KT 21/20 A3002 RMK A01 T02080203  RH  097%=      5-min Rain = 0
KGO1 130931Z 31001KT 21/20 A3002 RMK A01 T02080202  RH  097%=      5-min Rain = 0
KGO1 130932Z 32002KT 21/20 A3002 RMK A01 T02080202  RH  096%=      5-min Rain = 0
KGO1 130933Z 32003KT 21/20 A3002 RMK A01 T02060200  RH  096%=      5-min Rain = 0
KGO1 130934Z 31002KT 21/20 A3002 RMK A01 T02050200  RH  097%=      5-min Rain = 0
KGO1 130935Z 32002KT 21/20 A3002 RMK A01 T02050200  RH  097%=      5-min Rain = 0
KGO1 130936Z 31002KT 21/20 A3002 RMK A01 T02050201  RH  097%=      5-min Rain = 0
KGO1 130937Z 29002KT 21/20 A3003 RMK A01 T02060201  RH  097%=      5-min Rain = 0
KGO1 130938Z 28001KT 21/20 A3003 RMK A01 T02060201  RH  097%=      5-min Rain = 0
KGO1 130939Z 28001KT 21/20 A3003 RMK A01 T02070201  RH  096%=      5-min Rain = 0
KGO1 130940Z 25002KT 21/20 A3003 RMK A01 T02070201  RH  096%=      5-min Rain = 0
KGO1 130941Z 23002KT 21/20 A3003 RMK A01 T02070200  RH  096%=      5-min Rain = 0
KGO1 130942Z 23002KT 21/20 A3003 RMK A01 T02070201  RH  096%=      5-min Rain = 0
KGO1 130943Z 25002KT 21/20 A3003 RMK A01 T02070201  RH  096%=      5-min Rain = 0
KGO1 130944Z 28002KT 21/20 A3002 RMK A01 T02070201  RH  096%=      5-min Rain = 0
KGO1 130945Z 28002KT 21/20 A3002 RMK A01 T02080202  RH  096%=      5-min Rain = 0
KGO1 130946Z 28002KT 21/20 A3002 RMK A01 T02080202  RH  096%=      5-min Rain = 0
KGO1 130947Z 28003KT 21/20 A3002 RMK A01 T02060201  RH  097%=      5-min Rain = 0
KGO1 130948Z 30004KT 21/20 A3003 RMK A01 T02050200  RH  097%=      5-min Rain = 0
KGO1 130949Z 29003KT 21/20 A3003 RMK A01 T02050200  RH  097%=      5-min Rain = 0
KGO1 130950Z 30004KT 20/20 A3003 RMK A01 T02040201  RH  098%=      5-min Rain = 0
KGO1 130951Z 31005KT 21/20 A3003 RMK A01 T02050201  RH  098%=      5-min Rain = 0
KGO1 130952Z 33005KT 21/20 A3003 RMK A01 T02050201  RH  098%=      5-min Rain = 0
KGO1 130953Z 35005KT 20/20 A3003 RMK A01 T02040200  RH  097%=      5-min Rain = 0
KGO1 130954Z 36005KT 20/20 A3003 RMK A01 T02030199  RH  097%=      5-min Rain = 0
KGO1 130955Z 00005KT 20/20 A3004 RMK A01 T02030199  RH  098%=      5-min Rain = 0
KGO1 130956Z 34004KT 20/20 A3004 RMK A01 T02030200  RH  098%=      5-min Rain = 0
KGO1 130957Z 31002KT 20/20 A3004 RMK A01 T02030200  RH  098%=      5-min Rain = 0
KGO1 130958Z 29002KT 20/20 A3004 RMK A01 T02030200  RH  098%=      5-min Rain = 0
KGO1 130959Z 31002KT 20/20 A3004 RMK A01 T02030200  RH  098%=      5-min Rain = 0
KGO1 131000Z 35003KT 20/20 A3004 RMK A01 T02030200  RH  098%=      5-min Rain = 0
KGO1 131001Z 36005KT 20/20 A3004 RMK A01 T02030199  RH  098%=      5-min Rain = 0
KGO1 131002Z 36005KT 20/20 A3004 RMK A01 T02020198  RH  098%=      5-min Rain = 0
KGO1 131003Z 35005KT 20/20 A3004 RMK A01 T02010198  RH  098%=      5-min Rain = 0
KGO1 131004Z 34005KT 20/20 A3004 RMK A01 T02010198  RH  098%=      5-min Rain = 0
KGO1 131005Z 34005KT 20/20 A3004 RMK A01 T02010198  RH  099%=      5-min Rain = 0
KGO1 131006Z 35005KT 20/20 A3004 RMK A01 T02010198  RH  098%=      5-min Rain = 0
KGO1 131007Z 35005KT 20/20 A3004 RMK A01 T02000198  RH  098%=      5-min Rain = 0
KGO1 131008Z 34005KT 20/20 A3004 RMK A01 T02010198  RH  098%=      5-min Rain = 0
KGO1 131009Z 33003KT 20/20 A3004 RMK A01 T02010198  RH  098%=      5-min Rain = 0
KGO1 131010Z 33002KT 20/20 A3004 RMK A01 T02010198  RH  098%=      5-min Rain = 0
KGO1 131011Z 32003KT 20/20 A3004 RMK A01 T02010198  RH  098%=      5-min Rain = 0
KGO1 131012Z 33003KT 20/20 A3004 RMK A01 T02020198  RH  098%=      5-min Rain = 0
KGO1 131013Z 33003KT 20/20 A3004 RMK A01 T02020198  RH  098%=      5-min Rain = 0
KGO1 131014Z 33003KT 20/20 A3004 RMK A01 T02020198  RH  097%=      5-min Rain = 0
KGO1 131015Z 33003KT 20/20 A3004 RMK A01 T02020197  RH  097%=      5-min Rain = 0
KGO1 131016Z 33003KT 20/20 A3004 RMK A01 T02020198  RH  097%=      5-min Rain = 0
KGO1 131017Z 32003KT 20/20 A3004 RMK A01 T02020198  RH  097%=      5-min Rain = 0
KGO1 131018Z 33003KT 20/20 A3004 RMK A01 T02020198  RH  098%=      5-min Rain = 0
KGO1 131019Z 33004KT 20/20 A3004 RMK A01 T02010198  RH  098%=      5-min Rain = 0
KGO1 131020Z 33004KT 20/20 A3004 RMK A01 T02010198  RH  098%=      5-min Rain = 0
KGO1 131021Z 34005KT 20/20 A3004 RMK A01 T02010198  RH  098%=      5-min Rain = 0
KGO1 131022Z 34005KT 20/20 A3004 RMK A01 T02010197  RH  098%=      5-min Rain = 0
KGO1 131023Z 34005KT 20/20 A3004 RMK A01 T02000197  RH  098%=      5-min Rain = 0
KGO1 131024Z 35005KT 20/20 A3004 RMK A01 T02000197  RH  098%=      5-min Rain = 0
KGO1 131025Z 35005KT 20/20 A3004 RMK A01 T02000198  RH  098%=      5-min Rain = 0
KGO1 131026Z 34005KT 20/20 A3004 RMK A01 T02000198  RH  098%=      5-min Rain = 0
KGO1 131027Z 33005KT 20/20 A3004 RMK A01 T02000198  RH  099%=      5-min Rain = 0
KGO1 131028Z 32005KT 20/20 A3004 RMK A01 T02000198  RH  099%=      5-min Rain = 0
KGO1 131029Z 31006KT 20/20 A3004 RMK A01 T02010199  RH  099%=      5-min Rain = 0
KGO1 131030Z 32006KT 20/20 A3004 RMK A01 T02010199  RH  099%=      5-min Rain = 0
KGO1 131031Z 32007KT 20/20 A3004 RMK A01 T02010199  RH  099%=      5-min Rain = 0
KGO1 131032Z 32007KT 20/20 A3004 RMK A01 T02010199  RH  099%=      5-min Rain = 0
KGO1 131033Z 33007KT 20/20 A3004 RMK A01 T02010199  RH  099%=      5-min Rain = 0
KGO1 131034Z 33007KT 20/20 A3004 RMK A01 T02010199  RH  099%=      5-min Rain = 0
KGO1 131035Z 32007KT 20/20 A3004 RMK A01 T02010200  RH  099%=      5-min Rain = 0
KGO1 131036Z 31006KT 20/20 A3004 RMK A01 T02010201  RH  100%=      5-min Rain = 0
KGO1 131037Z 31006KT 20/20 A3004 RMK A01 T02010201  RH  100%=      5-min Rain = 0
KGO1 131038Z 30006KT 20/20 A3004 RMK A01 T02010201  RH  100%=      5-min Rain = 0
KGO1 131039Z 30006KT 20/20 A3004 RMK A01 T02010201  RH  100%=      5-min Rain = 0
KGO1 131040Z 29006KT 20/20 A3004 RMK A01 T02010201  RH  100%=      5-min Rain = 0
KGO1 131041Z 30007KT 20/20 A3004 RMK A01 T02010201  RH  100%=      5-min Rain = 0
KGO1 131042Z 30007KT 20/20 A3004 RMK A01 T02000200  RH  100%=      5-min Rain = 0
KGO1 131043Z 31007KT 20/20 A3004 RMK A01 T02000200  RH  100%=      5-min Rain = 0
KGO1 131044Z 31007KT 20/20 A3004 RMK A01 T02000200  RH  100%=      5-min Rain = 0
KGO1 131045Z 31007KT 20/20 A3004 RMK A01 T02000200  RH  100%=      5-min Rain = 0
KGO1 131046Z 31007KT 20/20 A3004 RMK A01 T02000200  RH  100%=      5-min Rain = 0
KGO1 131047Z 31007KT 20/20 A3004 RMK A01 T02000201  RH  100%=      5-min Rain = 0
KGO1 131048Z 31007KT 20/20 A3005 RMK A01 T02000201  RH  100%=      5-min Rain = 0
KGO1 131049Z 31007KT 20/20 A3005 RMK A01 T02000201  RH  100%=      5-min Rain = 0
KGO1 131050Z 31006KT 20/20 A3005 RMK A01 T02000201  RH  100%=      5-min Rain = 0
KGO1 131051Z 31006KT 20/20 A3005 RMK A01 T02000201  RH  100%=      5-min Rain = 0
KGO1 131052Z 31006KT 20/20 A3005 RMK A01 T02000201  RH  100%=      5-min Rain = 0
KGO1 131053Z 31007KT 20/20 A3005 RMK A01 T02000200  RH  100%=      5-min Rain = 0
KGO1 131054Z 31007KT 20/20 A3005 RMK A01 T02000200  RH  100%=      5-min Rain = 0
KGO1 131055Z 32007KT 20/20 A3005 RMK A01 T02000200  RH  100%=      5-min Rain = 0
KGO1 131056Z 32007KT 20/20 A3005 RMK A01 T02000200  RH  100%=      5-min Rain = 0
KGO1 131057Z 33007KT 20/20 A3005 RMK A01 T01990200  RH  100%=      5-min Rain = 0
KGO1 131058Z 32007KT 20/20 A3005 RMK A01 T01990199  RH  100%=      5-min Rain = 0
KGO1 131059Z 33006KT 20/20 A3005 RMK A01 T01990199  RH  100%=      5-min Rain = 0
KGO1 131100Z 33007KT 20/20 A3005 RMK A01 T01990199  RH  100%=      5-min Rain = 0
KGO1 131101Z 32007KT 20/20 A3005 RMK A01 T01990199  RH  100%=      5-min Rain = 0
KGO1 131102Z 32007KT 20/20 A3005 RMK A01 T01980199  RH  100%=      5-min Rain = 0
KGO1 131103Z 31006KT 20/20 A3005 RMK A01 T01990199  RH  100%=      5-min Rain = 0
KGO1 131104Z 32007KT 20/20 A3005 RMK A01 T01990199  RH  100%=      5-min Rain = 0
KGO1 131105Z 32007KT 20/20 A3005 RMK A01 T01990199  RH  100%=      5-min Rain = 0
KGO1 131106Z 32006KT 20/20 A3005 RMK A01 T01990199  RH  100%=      5-min Rain = 0
KGO1 131107Z 31007KT 20/20 A3005 RMK A01 T01990199  RH  100%=      5-min Rain = 0
KGO1 131108Z 31006KT 20/20 A3005 RMK A01 T01990199  RH  100%=      5-min Rain = 0
KGO1 131109Z 31007KT 20/20 A3005 RMK A01 T01980199  RH  100%=      5-min Rain = 0
KGO1 131110Z 31008KT 20/20 A3005 RMK A01 T01990199  RH  100%=      5-min Rain = 0
KGO1 131111Z 31007KT 20/20 A3005 RMK A01 T01990199  RH  100%=      5-min Rain = 0
KGO1 131112Z 31007KT 20/20 A3005 RMK A01 T01980199  RH  100%=      5-min Rain = 0
KGO1 131113Z 32007KT 20/20 A3005 RMK A01 T01990199  RH  100%=      5-min Rain = 0
KGO1 131114Z 32008KT 20/20 A3005 RMK A01 T01990199  RH  100%=      5-min Rain = 0
KGO1 131115Z 31007KT 20/20 A3006 RMK A01 T01990199  RH  100%=      5-min Rain = 0
KGO1 131116Z 32007KT 20/20 A3006 RMK A01 T01990199  RH  100%=      5-min Rain = 0
KGO1 131117Z 31007KT 20/20 A3006 RMK A01 T01980198  RH  100%=      5-min Rain = 0
KGO1 131118Z 32007KT 20/20 A3006 RMK A01 T01990199  RH  100%=      5-min Rain = 0
KGO1 131119Z 32008KT 20/20 A3006 RMK A01 T01980199  RH  100%=      5-min Rain = 0
KGO1 131120Z 32007KT 20/20 A3006 RMK A01 T01990199  RH  100%=      5-min Rain = 0
KGO1 131121Z 32007KT 20/20 A3006 RMK A01 T01990199  RH  100%=      5-min Rain = 0
KGO1 131122Z 32005KT 20/20 A3006 RMK A01 T01990199  RH  100%=      5-min Rain = 0
KGO1 131123Z 33006KT 20/20 A3006 RMK A01 T01990199  RH  100%=      5-min Rain = 0
KGO1 131124Z 32006KT 20/20 A3006 RMK A01 T01980198  RH  100%=      5-min Rain = 0
KGO1 131125Z 32005KT 20/20 A3006 RMK A01 T01980198  RH  100%=      5-min Rain = 0
KGO1 131126Z 32006KT 20/20 A3006 RMK A01 T01980198  RH  100%=      5-min Rain = 0
KGO1 131127Z 32005KT 20/20 A3006 RMK A01 T01980198  RH  100%=      5-min Rain = 0
KGO1 131128Z 33006KT 20/20 A3006 RMK A01 T01980198  RH  100%=      5-min Rain = 0
KGO1 131129Z 33006KT 20/20 A3006 RMK A01 T01980198  RH  100%=      5-min Rain = 0
KGO1 131130Z 33005KT 20/20 A3006 RMK A01 T01980198  RH  100%=      5-min Rain = 0
KGO1 131131Z 33005KT 20/20 A3006 RMK A01 T01980198  RH  100%=      5-min Rain = 0
KGO1 131132Z 33006KT 20/20 A3006 RMK A01 T01980198  RH  100%=      5-min Rain = 0
KGO1 131133Z 34006KT 20/20 A3006 RMK A01 T01980198  RH  100%=      5-min Rain = 0
KGO1 131134Z 34005KT 20/20 A3006 RMK A01 T01980198  RH  100%=      5-min Rain = 0
KGO1 131135Z 33006KT 20/20 A3006 RMK A01 T01970198  RH  100%=      5-min Rain = 0
KGO1 131136Z 33005KT 20/20 A3007 RMK A01 T01980198  RH  100%=      5-min Rain = 0
KGO1 131137Z 34006KT 20/20 A3007 RMK A01 T01980198  RH  100%=      5-min Rain = 0
KGO1 131138Z 34007KT 20/20 A3007 RMK A01 T01970198  RH  100%=      5-min Rain = 0
KGO1 131139Z 34006KT 20/20 A3007 RMK A01 T01980198  RH  100%=      5-min Rain = 0
KGO1 131140Z 34006KT 20/20 A3007 RMK A01 T01980198  RH  100%=      5-min Rain = 0
KGO1 131141Z 34006KT 20/20 A3007 RMK A01 T01980198  RH  100%=      5-min Rain = 0
KGO1 131142Z 34006KT 20/20 A3007 RMK A01 T01970197  RH  100%=      5-min Rain = 0
KGO1 131143Z 33006KT 20/20 A3007 RMK A01 T01970197  RH  100%=      5-min Rain = 0
KGO1 131144Z 34006KT 20/20 A3007 RMK A01 T01970197  RH  100%=      5-min Rain = 0
KGO1 131145Z 33006KT 20/20 A3007 RMK A01 T01970197  RH  100%=      5-min Rain = 0
KGO1 131146Z 34006KT 20/20 A3007 RMK A01 T01970197  RH  100%=      5-min Rain = 0
KGO1 131147Z 33006KT 20/20 A3007 RMK A01 T01970197  RH  100%=      5-min Rain = 0
KGO1 131148Z 34005KT 20/20 A3007 RMK A01 T01970197  RH  100%=      5-min Rain = 0
KGO1 131149Z 34006KT 20/20 A3007 RMK A01 T01960196  RH  100%=      5-min Rain = 0
KGO1 131150Z 34005KT 20/20 A3007 RMK A01 T01960196  RH  100%=      5-min Rain = 0
KGO1 131151Z 34005KT 20/20 A3007 RMK A01 T01960196  RH  100%=      5-min Rain = 0
KGO1 131152Z 33006KT 20/20 A3007 RMK A01 T01960196  RH  100%=      5-min Rain = 0
KGO1 131153Z 34006KT 20/20 A3007 RMK A01 T01960196  RH  100%=      5-min Rain = 0
KGO1 131154Z 34005KT 20/20 A3007 RMK A01 T01960196  RH  100%=      5-min Rain = 0
KGO1 131155Z 34006KT 20/20 A3007 RMK A01 T01960196  RH  100%=      5-min Rain = 0
KGO1 131156Z 35006KT 20/20 A3007 RMK A01 T01950196  RH  100%=      5-min Rain = 0
KGO1 131157Z 34006KT 20/20 A3007 RMK A01 T01950195  RH  100%=      5-min Rain = 0
KGO1 131158Z 34006KT 20/20 A3007 RMK A01 T01950196  RH  100%=      5-min Rain = 0
KGO1 131159Z 35005KT 20/20 A3007 RMK A01 T01950195  RH  100%=      5-min Rain = 0
KGO1 131200Z 34005KT 20/20 A3007 RMK A01 T01950195  RH  100%=      5-min Rain = 0
KGO1 131201Z 35006KT 20/20 A3007 RMK A01 T01950195  RH  100%=      5-min Rain = 0
KGO1 131202Z 34006KT 20/20 A3007 RMK A01 T01950195  RH  100%=      5-min Rain = 0
KGO1 131203Z 35007KT 19/20 A3007 RMK A01 T01940195  RH  100%=      5-min Rain = 0
KGO1 131204Z 34007KT 20/20 A3007 RMK A01 T01950195  RH  100%=      5-min Rain = 0
KGO1 131205Z 34007KT 19/20 A3007 RMK A01 T01940195  RH  100%=      5-min Rain = 0
KGO1 131206Z 34006KT 19/19 A3007 RMK A01 T01940194  RH  100%=      5-min Rain = 0
KGO1 131207Z 34007KT 19/19 A3007 RMK A01 T01940194  RH  100%=      5-min Rain = 0
KGO1 131208Z 33007KT 19/19 A3007 RMK A01 T01940194  RH  100%=      5-min Rain = 0
KGO1 131209Z 33008KT 19/19 A3008 RMK A01 T01940194  RH  100%=      5-min Rain = 0
KGO1 131210Z 33007KT 19/19 A3008 RMK A01 T01940194  RH  100%=      5-min Rain = 0
KGO1 131211Z 33006KT 19/19 A3008 RMK A01 T01940194  RH  100%=      5-min Rain = 0
KGO1 131212Z 33007KT 19/19 A3008 RMK A01 T01940194  RH  100%=      5-min Rain = 0
KGO1 131213Z 33006KT 19/19 A3008 RMK A01 T01940194  RH  100%=      5-min Rain = 0
KGO1 131214Z 33007KT 19/19 A3008 RMK A01 T01940194  RH  100%=      5-min Rain = 0
KGO1 131215Z 33007KT 19/19 A3008 RMK A01 T01940194  RH  100%=      5-min Rain = 0
KGO1 131216Z 33007KT 19/19 A3008 RMK A01 T01940194  RH  100%=      5-min Rain = 0
KGO1 131217Z 34007KT 19/19 A3008 RMK A01 T01940194  RH  100%=      5-min Rain = 0
KGO1 131218Z 33007KT 19/19 A3008 RMK A01 T01940194  RH  100%=      5-min Rain = 0
KGO1 131219Z 34008KT 19/19 A3008 RMK A01 T01930194  RH  100%=      5-min Rain = 0
KGO1 131220Z 33007KT 19/19 A3008 RMK A01 T01940194  RH  100%=      5-min Rain = 0
KGO1 131221Z 33007KT 19/19 A3008 RMK A01 T01940194  RH  100%=      5-min Rain = 0
KGO1 131222Z 33007KT 19/19 A3008 RMK A01 T01940194  RH  100%=      5-min Rain = 0
KGO1 131223Z 33008KT 19/19 A3008 RMK A01 T01940194  RH  100%=      5-min Rain = 0
KGO1 131224Z 33008KT 19/19 A3008 RMK A01 T01930194  RH  100%=      5-min Rain = 0
KGO1 131225Z 34008KT 19/19 A3008 RMK A01 T01930194  RH  100%=      5-min Rain = 0
KGO1 131226Z 33007KT 19/19 A3008 RMK A01 T01940194  RH  100%=      5-min Rain = 0
KGO1 131227Z 33008KT 19/19 A3008 RMK A01 T01930194  RH  100%=      5-min Rain = 0
KGO1 131228Z 34009KT 19/19 A3008 RMK A01 T01930194  RH  100%=      5-min Rain = 0
KGO1 131229Z 34008KT 19/19 A3008 RMK A01 T01940194  RH  100%=      5-min Rain = 0
KGO1 131230Z 33009KT 19/19 A3008 RMK A01 T01940194  RH  100%=      5-min Rain = 0
KGO1 131231Z 33009KT 19/19 A3008 RMK A01 T01940194  RH  100%=      5-min Rain = 0
KGO1 131232Z 33008KT 19/19 A3008 RMK A01 T01940194  RH  100%=      5-min Rain = 0
KGO1 131233Z 33009KT 19/20 A3008 RMK A01 T01940195  RH  100%=      5-min Rain = 0
KGO1 131234Z 33009KT 20/20 A3008 RMK A01 T01950195  RH  100%=      5-min Rain = 0
KGO1 131235Z 33007KT 20/20 A3008 RMK A01 T01950195  RH  100%=      5-min Rain = 0
KGO1 131236Z 33008KT 20/20 A3008 RMK A01 T01950195  RH  100%=      5-min Rain = 0
KGO1 131237Z 33008KT 20/20 A3008 RMK A01 T01950195  RH  100%=      5-min Rain = 0
KGO1 131238Z 33008KT 20/20 A3008 RMK A01 T01960196  RH  100%=      5-min Rain = 0
KGO1 131239Z 33007KT 20/20 A3008 RMK A01 T01960196  RH  100%=      5-min Rain = 0
KGO1 131240Z 33008KT 20/20 A3008 RMK A01 T01970197  RH  100%=      5-min Rain = 0
KGO1 131241Z 33008KT 20/20 A3008 RMK A01 T01970197  RH  100%=      5-min Rain = 0
KGO1 131242Z 33007KT 20/20 A3008 RMK A01 T01970197  RH  100%=      5-min Rain = 0
KGO1 131243Z 33009KT 20/20 A3008 RMK A01 T01980198  RH  100%=      5-min Rain = 0
KGO1 131244Z 33009KT 20/20 A3009 RMK A01 T01980198  RH  100%=      5-min Rain = 0
KGO1 131245Z 33010KT 20/20 A3009 RMK A01 T01980198  RH  100%=      5-min Rain = 0
KGO1 131246Z 33009KT 20/20 A3009 RMK A01 T01980198  RH  100%=      5-min Rain = 0
KGO1 131247Z 33009KT 20/20 A3009 RMK A01 T01990199  RH  100%=      5-min Rain = 0
KGO1 131248Z 33008KT 20/20 A3009 RMK A01 T01990199  RH  100%=      5-min Rain = 0
KGO1 131249Z 33008KT 20/20 A3009 RMK A01 T01990199  RH  100%=      5-min Rain = 0
KGO1 131250Z 33009KT 20/20 A3009 RMK A01 T01990200  RH  100%=      5-min Rain = 0
KGO1 131251Z 33009KT 20/20 A3009 RMK A01 T01990200  RH  100%=      5-min Rain = 0
KGO1 131252Z 33007KT 20/20 A3009 RMK A01 T02000200  RH  100%=      5-min Rain = 0
KGO1 131253Z 33009KT 20/20 A3009 RMK A01 T02000200  RH  100%=      5-min Rain = 0
KGO1 131254Z 33008KT 20/20 A3008 RMK A01 T02010201  RH  100%=      5-min Rain = 0
KGO1 131255Z 33009KT 20/20 A3008 RMK A01 T02010201  RH  100%=      5-min Rain = 0
KGO1 131256Z 33008KT 20/20 A3008 RMK A01 T02020202  RH  100%=      5-min Rain = 0
KGO1 131257Z 33009KT 20/20 A3008 RMK A01 T02020202  RH  100%=      5-min Rain = 0
KGO1 131258Z 34007KT 20/20 A3009 RMK A01 T02020202  RH  100%=      5-min Rain = 0
KGO1 131259Z 34008KT 20/20 A3009 RMK A01 T02030203  RH  100%=      5-min Rain = 0
KGO1 131300Z 34008KT 20/20 A3009 RMK A01 T02030203  RH  100%=      5-min Rain = 0
KGO1 131301Z 34008KT 20/20 A3009 RMK A01 T02030203  RH  100%=      5-min Rain = 0
KGO1 131302Z 34008KT 20/20 A3009 RMK A01 T02040203  RH  099%=      5-min Rain = 0
KGO1 131303Z 34007KT 20/20 A3009 RMK A01 T02040203  RH  099%=      5-min Rain = 0
KGO1 131304Z 34008KT 21/20 A3009 RMK A01 T02050203  RH  099%=      5-min Rain = 0
KGO1 131305Z 34009KT 21/20 A3009 RMK A01 T02050203  RH  099%=      5-min Rain = 0
KGO1 131306Z 33009KT 21/20 A3009 RMK A01 T02050203  RH  098%=      5-min Rain = 0
KGO1 131307Z 33010KT 21/20 A3009 RMK A01 T02060203  RH  098%=      5-min Rain = 0
KGO1 131308Z 33010KT 21/20 A3009 RMK A01 T02060203  RH  098%=      5-min Rain = 0
KGO1 131309Z 34008KT 21/20 A3009 RMK A01 T02060203  RH  098%=      5-min Rain = 0
KGO1 131310Z 34008KT 21/20 A3009 RMK A01 T02070204  RH  098%=      5-min Rain = 0
KGO1 131311Z 34009KT 21/20 A3009 RMK A01 T02080204  RH  098%=      5-min Rain = 0
KGO1 131312Z 34009KT 21/21 A3009 RMK A01 T02080205  RH  098%=      5-min Rain = 0
KGO1 131313Z 34010KT 21/20 A3009 RMK A01 T02080204  RH  098%=      5-min Rain = 0
KGO1 131314Z 34010KT 21/20 A3009 RMK A01 T02080204  RH  097%=      5-min Rain = 0
KGO1 131315Z 34010KT 21/20 A3009 RMK A01 T02080203  RH  097%=      5-min Rain = 0
KGO1 131316Z 34008KT 21/20 A301 RMK A01 T02090204  RH  097%=      5-min Rain = 0
KGO1 131317Z 34008KT 21/21 A301 RMK A01 T02090205  RH  097%=      5-min Rain = 0
KGO1 131318Z 34007KT 21/21 A301 RMK A01 T02100206  RH  098%=      5-min Rain = 0
KGO1 131319Z 33006KT 21/21 A301 RMK A01 T02110207  RH  098%=      5-min Rain = 0
KGO1 131320Z 34009KT 21/21 A301 RMK A01 T02110207  RH  097%=      5-min Rain = 0
KGO1 131321Z 34009KT 21/21 A301 RMK A01 T02110206  RH  096%=      5-min Rain = 0
KGO1 131322Z 34008KT 21/21 A301 RMK A01 T02110206  RH  097%=      5-min Rain = 0
KGO1 131323Z 35007KT 21/21 A301 RMK A01 T02110207  RH  097%=      5-min Rain = 0
KGO1 131324Z 35007KT 21/21 A301 RMK A01 T02120207  RH  097%=      5-min Rain = 0
KGO1 131325Z 35008KT 21/21 A301 RMK A01 T02130207  RH  097%=      5-min Rain = 0
KGO1 131326Z 36007KT 21/21 A301 RMK A01 T02130208  RH  097%=      5-min Rain = 0
KGO1 131327Z 36008KT 21/21 A301 RMK A01 T02140208  RH  096%=      5-min Rain = 0
KGO1 131328Z 36008KT 21/21 A301 RMK A01 T02140207  RH  096%=      5-min Rain = 0
KGO1 131329Z 35008KT 21/21 A301 RMK A01 T02140208  RH  096%=      5-min Rain = 0
KGO1 131330Z 35009KT 22/21 A301 RMK A01 T02150207  RH  096%=      5-min Rain = 0
KGO1 131331Z 35009KT 22/21 A301 RMK A01 T02150208  RH  096%=      5-min Rain = 0
KGO1 131332Z 35009KT 22/21 A301 RMK A01 T02150207  RH  096%=      5-min Rain = 0
KGO1 131333Z 35008KT 22/21 A301 RMK A01 T02150207  RH  095%=      5-min Rain = 0
KGO1 131334Z 35007KT 22/21 A301 RMK A01 T02150207  RH  095%=      5-min Rain = 0
KGO1 131335Z 35008KT 22/21 A301 RMK A01 T02150209  RH  096%=      5-min Rain = 0
KGO1 131336Z 36007KT 22/21 A301 RMK A01 T02150208  RH  095%=      5-min Rain = 0
KGO1 131337Z 35007KT 22/21 A301 RMK A01 T02160209  RH  096%=      5-min Rain = 0
KGO1 131338Z 35009KT 22/21 A301 RMK A01 T02160208  RH  095%=      5-min Rain = 0
KGO1 131339Z 34009KT 22/21 A301 RMK A01 T02170207  RH  094%=      5-min Rain = 0
KGO1 131340Z 35008KT 22/21 A301 RMK A01 T02170208  RH  095%=      5-min Rain = 0
KGO1 131341Z 00008KT 22/21 A301 RMK A01 T02170208  RH  095%=      5-min Rain = 0
KGO1 131342Z 36009KT 22/21 A301 RMK A01 T02170208  RH  095%=      5-min Rain = 0
KGO1 131343Z 35009KT 22/21 A301 RMK A01 T02180209  RH  094%=      5-min Rain = 0
KGO1 131344Z 35008KT 22/21 A301 RMK A01 T02180208  RH  094%=      5-min Rain = 0
KGO1 131345Z 36009KT 22/21 A301 RMK A01 T02190208  RH  094%=      5-min Rain = 0
KGO1 131346Z 36009KT 22/21 A301 RMK A01 T02190209  RH  094%=      5-min Rain = 0
KGO1 131347Z 00009KT 22/21 A301 RMK A01 T02200209  RH  094%=      5-min Rain = 0
KGO1 131348Z 36009KT 22/21 A301 RMK A01 T02200208  RH  093%=      5-min Rain = 0
KGO1 131349Z 00008KT 22/21 A301 RMK A01 T02200209  RH  094%=      5-min Rain = 0
KGO1 131350Z 35008KT 22/21 A301 RMK A01 T02210210  RH  094%=      5-min Rain = 0
KGO1 131351Z 36008KT 22/21 A301 RMK A01 T02210209  RH  092%=      5-min Rain = 0
KGO1 131352Z 00007KT 22/21 A301 RMK A01 T02210209  RH  093%=      5-min Rain = 0
KGO1 131353Z 36007KT 22/21 A301 RMK A01 T02230212  RH  094%=      5-min Rain = 0
KGO1 131354Z 36008KT 22/21 A301 RMK A01 T02240209  RH  091%=      5-min Rain = 0
KGO1 131355Z 36007KT 22/21 A3011 RMK A01 T02240211  RH  092%=      5-min Rain = 0
KGO1 131356Z 36008KT 23/21 A3011 RMK A01 T02250210  RH  091%=      5-min Rain = 0
KGO1 131357Z 36007KT 23/21 A3011 RMK A01 T02250210  RH  091%=      5-min Rain = 0
KGO1 131358Z 00006KT 23/21 A3011 RMK A01 T02250211  RH  092%=      5-min Rain = 0
KGO1 131359Z 00007KT 23/21 A3011 RMK A01 T02270211  RH  091%=      5-min Rain = 0
KGO1 131400Z 00009KT 23/21 A3011 RMK A01 T02270209  RH  090%=      5-min Rain = 0
KGO1 131401Z 00009KT 23/21 A3011 RMK A01 T02270210  RH  090%=      5-min Rain = 0
KGO1 131402Z 36008KT 23/21 A3011 RMK A01 T02270210  RH  090%=      5-min Rain = 0
KGO1 131403Z 01007KT 23/21 A3011 RMK A01 T02270210  RH  090%=      5-min Rain = 0
KGO1 131404Z 01009KT 23/21 A3011 RMK A01 T02270209  RH  090%=      5-min Rain = 0
KGO1 131405Z 00009KT 23/21 A3011 RMK A01 T02270209  RH  089%=      5-min Rain = 0
KGO1 131406Z 36010KT 23/21 A3011 RMK A01 T02280209  RH  089%=      5-min Rain = 0
KGO1 131407Z 36009KT 23/21 A3011 RMK A01 T02280209  RH  089%=      5-min Rain = 0
KGO1 131408Z 36009KT 23/21 A3011 RMK A01 T02280208  RH  088%=      5-min Rain = 0
KGO1 131409Z 35008KT 23/21 A3011 RMK A01 T02280209  RH  089%=      5-min Rain = 0
KGO1 131410Z 00008KT 23/21 A3011 RMK A01 T02280210  RH  089%=      5-min Rain = 0
KGO1 131411Z 00009KT 23/21 A3011 RMK A01 T02290208  RH  088%=      5-min Rain = 0
KGO1 131412Z 01008KT 23/21 A3011 RMK A01 T02290208  RH  088%=      5-min Rain = 0
KGO1 131413Z 00009KT 23/21 A3011 RMK A01 T02300209  RH  088%=      5-min Rain = 0
KGO1 131414Z 00010KT 23/21 A3011 RMK A01 T02310209  RH  087%=      5-min Rain = 0
KGO1 131415Z 00010KT 23/21 A3011 RMK A01 T02320209  RH  087%=      5-min Rain = 0
KGO1 131416Z 36010KT 23/21 A3011 RMK A01 T02310208  RH  087%=      5-min Rain = 0
KGO1 131417Z 35009KT 23/21 A3012 RMK A01 T02320208  RH  087%=      5-min Rain = 0
KGO1 131418Z 35007KT 23/21 A3012 RMK A01 T02320210  RH  088%=      5-min Rain = 0
KGO1 131419Z 35009KT 23/21 A3012 RMK A01 T02340211  RH  087%=      5-min Rain = 0
KGO1 131420Z 35009KT 23/21 A3012 RMK A01 T02340211  RH  087%=      5-min Rain = 0
KGO1 131421Z 35009KT 24/21 A3012 RMK A01 T02350210  RH  086%=      5-min Rain = 0
KGO1 131422Z 35009KT 24/21 A3012 RMK A01 T02350210  RH  086%=      5-min Rain = 0
KGO1 131423Z 35007KT 24/21 A3012 RMK A01 T02350212  RH  087%=      5-min Rain = 0
KGO1 131424Z 35010KT 24/21 A3012 RMK A01 T02370211  RH  085%=      5-min Rain = 0
KGO1 131425Z 34011KT 24/21 A3012 RMK A01 T02370210  RH  085%=      5-min Rain = 0
KGO1 131426Z 34009KT 24/21 A3012 RMK A01 T02360210  RH  085%=      5-min Rain = 0
KGO1 131427Z 34007KT 24/21 A3012 RMK A01 T02360212  RH  086%=      5-min Rain = 0
KGO1 131428Z 35009KT 24/21 A3012 RMK A01 T02370212  RH  086%=      5-min Rain = 0
KGO1 131429Z 35009KT 24/21 A3012 RMK A01 T02380211  RH  085%=      5-min Rain = 0
KGO1 131430Z 36009KT 24/21 A3012 RMK A01 T02380212  RH  085%=      5-min Rain = 0
KGO1 131431Z 36008KT 24/21 A3012 RMK A01 T02390212  RH  085%=      5-min Rain = 0
KGO1 131432Z 36008KT 24/21 A3012 RMK A01 T02400213  RH  085%=      5-min Rain = 0
KGO1 131433Z 35010KT 24/21 A3012 RMK A01 T02420211  RH  083%=      5-min Rain = 0
KGO1 131434Z 35010KT 24/21 A3012 RMK A01 T02420210  RH  082%=      5-min Rain = 0
KGO1 131435Z 34010KT 24/21 A3012 RMK A01 T02410209  RH  082%=      5-min Rain = 0
KGO1 131436Z 34009KT 24/21 A3012 RMK A01 T02400210  RH  083%=      5-min Rain = 0
KGO1 131437Z 34007KT 24/21 A3012 RMK A01 T02400211  RH  084%=      5-min Rain = 0
KGO1 131438Z 36008KT 24/21 A3012 RMK A01 T02420211  RH  083%=      5-min Rain = 0
KGO1 131439Z 00009KT 24/21 A3012 RMK A01 T02420211  RH  083%=      5-min Rain = 0
KGO1 131440Z 36009KT 24/21 A3012 RMK A01 T02430210  RH  082%=      5-min Rain = 0
KGO1 131441Z 36010KT 24/21 A3012 RMK A01 T02430210  RH  082%=      5-min Rain = 0
KGO1 131442Z 36009KT 24/21 A3012 RMK A01 T02430209  RH  081%=      5-min Rain = 0
KGO1 131443Z 35008KT 24/21 A3012 RMK A01 T02430210  RH  082%=      5-min Rain = 0
KGO1 131444Z 35008KT 24/21 A3012 RMK A01 T02430213  RH  083%=      5-min Rain = 0
KGO1 131445Z 35008KT 25/21 A3012 RMK A01 T02450213  RH  082%=      5-min Rain = 0
KGO1 131446Z 34009KT 25/21 A3012 RMK A01 T02460213  RH  082%=      5-min Rain = 0
KGO1 131447Z 34008KT 25/21 A3012 RMK A01 T02470213  RH  081%=      5-min Rain = 0
KGO1 131448Z 34008KT 25/21 A3012 RMK A01 T02470213  RH  081%=      5-min Rain = 0
KGO1 131449Z 35007KT 25/21 A3012 RMK A01 T02470212  RH  081%=      5-min Rain = 0
KGO1 131450Z 34007KT 25/22 A3012 RMK A01 T02480216  RH  083%=      5-min Rain = 0
KGO1 131451Z 34009KT 25/21 A3012 RMK A01 T02500213  RH  080%=      5-min Rain = 0
KGO1 131452Z 33009KT 25/21 A3012 RMK A01 T02500212  RH  079%=      5-min Rain = 0
KGO1 131453Z 33007KT 25/21 A3012 RMK A01 T02490211  RH  079%=      5-min Rain = 0
KGO1 131454Z 34008KT 25/21 A3012 RMK A01 T02480212  RH  080%=      5-min Rain = 0
KGO1 131455Z 33007KT 25/21 A3012 RMK A01 T02490214  RH  081%=      5-min Rain = 0
KGO1 131456Z 33009KT 25/21 A3012 RMK A01 T02510211  RH  079%=      5-min Rain = 0
KGO1 131457Z 34009KT 25/21 A3012 RMK A01 T02510211  RH  078%=      5-min Rain = 0
KGO1 131458Z 34008KT 25/21 A3012 RMK A01 T02510212  RH  079%=      5-min Rain = 0
KGO1 131459Z 34008KT 25/21 A3012 RMK A01 T02510212  RH  079%=      5-min Rain = 0
KGO1 131500Z 34009KT 25/21 A3012 RMK A01 T02520212  RH  078%=      5-min Rain = 0
KGO1 131501Z 35010KT 25/21 A3012 RMK A01 T02530211  RH  078%=      5-min Rain = 0
KGO1 131502Z 34009KT 25/21 A3012 RMK A01 T02520212  RH  078%=      5-min Rain = 0
KGO1 131503Z 34010KT 25/21 A3012 RMK A01 T02510211  RH  078%=      5-min Rain = 0
KGO1 131504Z 35009KT 25/21 A3013 RMK A01 T02520211  RH  078%=      5-min Rain = 0
KGO1 131505Z 35009KT 25/21 A3013 RMK A01 T02530210  RH  077%=      5-min Rain = 0
KGO1 131506Z 36009KT 25/21 A3013 RMK A01 T02530211  RH  078%=      5-min Rain = 0
KGO1 131507Z 34010KT 25/21 A3013 RMK A01 T02530212  RH  078%=      5-min Rain = 0
KGO1 131508Z 35009KT 25/21 A3013 RMK A01 T02540212  RH  077%=      5-min Rain = 0
KGO1 131509Z 35010KT 26/21 A3013 RMK A01 T02550213  RH  078%=      5-min Rain = 0
KGO1 131510Z 36011KT 26/21 A3013 RMK A01 T02560210  RH  076%=      5-min Rain = 0
KGO1 131511Z 36009KT 26/21 A3013 RMK A01 T02550210  RH  076%=      5-min Rain = 0
KGO1 131512Z 35010KT 26/21 A3013 RMK A01 T02550210  RH  076%=      5-min Rain = 0
KGO1 131513Z 34008KT 26/21 A3013 RMK A01 T02550210  RH  076%=      5-min Rain = 0
KGO1 131514Z 36007KT 26/21 A3013 RMK A01 T02560213  RH  077%=      5-min Rain = 0
KGO1 131515Z 36010KT 26/21 A3013 RMK A01 T02590213  RH  076%=      5-min Rain = 0
KGO1 131516Z 35009KT 26/21 A3013 RMK A01 T02590209  RH  074%=      5-min Rain = 0
KGO1 131517Z 35008KT 26/21 A3013 RMK A01 T02570210  RH  075%=      5-min Rain = 0
KGO1 131518Z 35009KT 26/21 A3013 RMK A01 T02560213  RH  077%=      5-min Rain = 0
KGO1 131519Z 00010KT 26/21 A3013 RMK A01 T02580211  RH  075%=      5-min Rain = 0
KGO1 131520Z 01008KT 26/21 A3013 RMK A01 T02580209  RH  074%=      5-min Rain = 0
KGO1 131521Z 35010KT 26/21 A3013 RMK A01 T02570209  RH  075%=      5-min Rain = 0
KGO1 131522Z 34009KT 26/21 A3013 RMK A01 T02580208  RH  074%=      5-min Rain = 0
KGO1 131523Z 35007KT 26/21 A3013 RMK A01 T02580210  RH  074%=      5-min Rain = 0
KGO1 131524Z 34009KT 26/21 A3013 RMK A01 T02610212  RH  074%=      5-min Rain = 0
KGO1 131525Z 34009KT 26/21 A3013 RMK A01 T02630211  RH  073%=      5-min Rain = 0
KGO1 131526Z 00007KT 26/21 A3013 RMK A01 T02630213  RH  074%=      5-min Rain = 0
KGO1 131527Z 02009KT 26/21 A3013 RMK A01 T02630213  RH  074%=      5-min Rain = 0
KGO1 131528Z 35009KT 26/21 A3013 RMK A01 T02640211  RH  073%=      5-min Rain = 0
KGO1 131529Z 36009KT 26/21 A3013 RMK A01 T02620211  RH  073%=      5-min Rain = 0
KGO1 131530Z 35008KT 26/21 A3013 RMK A01 T02610210  RH  074%=      5-min Rain = 0
KGO1 131531Z 01008KT 26/21 A3013 RMK A01 T02610212  RH  075%=      5-min Rain = 0
KGO1 131532Z 01007KT 26/21 A3013 RMK A01 T02600210  RH  074%=      5-min Rain = 0
KGO1 131533Z 00007G12KT 26/21 A3013 RMK A01 T02610214  RH  075%=      5-min Rain = 0
KGO1 131534Z 36010KT 26/21 A3013 RMK A01 T02640210  RH  072%=      5-min Rain = 0
KGO1 131535Z 36009KT 26/21 A3013 RMK A01 T02640211  RH  072%=      5-min Rain = 0
KGO1 131536Z 35007KT 26/21 A3013 RMK A01 T02630211  RH  073%=      5-min Rain = 0
KGO1 131537Z 01006KT 26/21 A3013 RMK A01 T02620212  RH  074%=      5-min Rain = 0
KGO1 131538Z 01008KT 26/21 A3013 RMK A01 T02630213  RH  074%=      5-min Rain = 0
KGO1 131539Z 01008KT 27/21 A3013 RMK A01 T02650212  RH  073%=      5-min Rain = 0
KGO1 131540Z 36007KT 27/21 A3013 RMK A01 T02670210  RH  071%=      5-min Rain = 0
KGO1 131541Z 35007KT 27/21 A3013 RMK A01 T02660210  RH  071%=      5-min Rain = 0
KGO1 131542Z 00008KT 27/21 A3013 RMK A01 T02660209  RH  071%=      5-min Rain = 0
KGO1 131543Z 36007KT 27/21 A3013 RMK A01 T02650211  RH  072%=      5-min Rain = 0
KGO1 131544Z 35006KT 27/21 A3013 RMK A01 T02670211  RH  072%=      5-min Rain = 0
KGO1 131545Z 02008KT 27/21 A3013 RMK A01 T02690211  RH  071%=      5-min Rain = 0
KGO1 131546Z 02007KT 27/21 A3013 RMK A01 T02690211  RH  070%=      5-min Rain = 0
KGO1 131547Z 02007KT 27/21 A3013 RMK A01 T02690212  RH  071%=      5-min Rain = 0
KGO1 131548Z 36006KT 27/21 A3013 RMK A01 T02700211  RH  070%=      5-min Rain = 0
KGO1 131549Z 35007KT 27/21 A3013 RMK A01 T02710211  RH  070%=      5-min Rain = 0
KGO1 131550Z 00008KT 27/21 A3013 RMK A01 T02720210  RH  069%=      5-min Rain = 0
KGO1 131551Z 00006KT 27/21 A3013 RMK A01 T02700212  RH  070%=      5-min Rain = 0
KGO1 131552Z 01007KT 27/21 A3013 RMK A01 T02700210  RH  069%=      5-min Rain = 0
KGO1 131553Z 35007KT 27/21 A3013 RMK A01 T02700211  RH  070%=      5-min Rain = 0
KGO1 131554Z 35007KT 27/21 A3013 RMK A01 T02710210  RH  069%=      5-min Rain = 0
KGO1 131555Z 36006KT 27/21 A3013 RMK A01 T02710210  RH  070%=      5-min Rain = 0
KGO1 131556Z 36003KT 27/21 A3013 RMK A01 T02710212  RH  070%=      5-min Rain = 0
KGO1 131557Z 01006KT 27/21 A3013 RMK A01 T02730213  RH  070%=      5-min Rain = 0
KGO1 131558Z 02004KT 28/22 A3013 RMK A01 T02760215  RH  069%=      5-min Rain = 0
KGO1 131559Z 02006KT 28/21 A3013 RMK A01 T02790214  RH  068%=      5-min Rain = 0
KGO1 131600Z 03009KT 28/21 A3013 RMK A01 T02800208  RH  065%=      5-min Rain = 0
KGO1 131601Z 01008KT 28/21 A3013 RMK A01 T02790209  RH  066%=      5-min Rain = 0
KGO1 131602Z 02007KT 28/21 A3013 RMK A01 T02790207  RH  065%=      5-min Rain = 0
KGO1 131603Z 00006KT 28/21 A3013 RMK A01 T02780206  RH  065%=      5-min Rain = 0
KGO1 131604Z 36004KT 28/21 A3013 RMK A01 T02760207  RH  066%=      5-min Rain = 0
KGO1 131605Z 02006KT 28/21 A3013 RMK A01 T02760210  RH  067%=      5-min Rain = 0
KGO1 131606Z 01007KT 28/20 A3013 RMK A01 T02780204  RH  064%=      5-min Rain = 0
KGO1 131607Z 36005KT 28/21 A3013 RMK A01 T02770207  RH  066%=      5-min Rain = 0
KGO1 131608Z 00009KT 28/21 A3013 RMK A01 T02770205  RH  065%=      5-min Rain = 0
KGO1 131609Z 01008KT 28/20 A3013 RMK A01 T02770202  RH  064%=      5-min Rain = 0
KGO1 131610Z 00005KT 28/20 A3014 RMK A01 T02770203  RH  064%=      5-min Rain = 0
KGO1 131611Z 00006KT 28/21 A3014 RMK A01 T02780206  RH  065%=      5-min Rain = 0
KGO1 131612Z 34007KT 28/21 A3013 RMK A01 T02780207  RH  065%=      5-min Rain = 0
KGO1 131613Z 34007KT 28/21 A3013 RMK A01 T02780210  RH  066%=      5-min Rain = 0
KGO1 131614Z 00008KT 28/21 A3014 RMK A01 T02800206  RH  064%=      5-min Rain = 0
KGO1 131615Z 35007KT 28/21 A3013 RMK A01 T02800205  RH  064%=      5-min Rain = 0
KGO1 131616Z 00006KT 28/20 A3013 RMK A01 T02780202  RH  063%=      5-min Rain = 0
KGO1 131617Z 00008KT 28/20 A3014 RMK A01 T02780203  RH  063%=      5-min Rain = 0
KGO1 131618Z 01007KT 28/20 A3014 RMK A01 T02800201  RH  062%=      5-min Rain = 0
KGO1 131619Z 35006KT 28/20 A3014 RMK A01 T02800203  RH  063%=      5-min Rain = 0
KGO1 131620Z 00006KT 28/20 A3014 RMK A01 T02810202  RH  062%=      5-min Rain = 0
KGO1 131621Z 01007KT 28/21 A3014 RMK A01 T02820205  RH  063%=      5-min Rain = 0
KGO1 131622Z 01007KT 28/20 A3014 RMK A01 T02840204  RH  062%=      5-min Rain = 0
KGO1 131623Z 36007KT 29/20 A3014 RMK A01 T02850204  RH  062%=      5-min Rain = 0
KGO1 131624Z 35006KT 29/21 A3013 RMK A01 T02850205  RH  062%=      5-min Rain = 0
KGO1 131625Z 36006KT 29/20 A3013 RMK A01 T02850204  RH  061%=      5-min Rain = 0
KGO1 131626Z 00007KT 29/21 A3014 RMK A01 T02850205  RH  062%=      5-min Rain = 0
KGO1 131627Z 02008KT 29/21 A3014 RMK A01 T02860205  RH  061%=      5-min Rain = 0
KGO1 131628Z 02007KT 29/20 A3014 RMK A01 T02870204  RH  061%=      5-min Rain = 0
KGO1 131629Z 01005KT 29/20 A3014 RMK A01 T02870203  RH  060%=      5-min Rain = 0
KGO1 131630Z 01005KT 29/20 A3014 RMK A01 T02890200  RH  059%=      5-min Rain = 0
KGO1 131631Z 35004KT 29/20 A3014 RMK A01 T02870200  RH  059%=      5-min Rain = 0
KGO1 131632Z 35003KT 29/20 A3014 RMK A01 T02870202  RH  060%=      5-min Rain = 0
KGO1 131633Z 34003KT 29/20 A3014 RMK A01 T02880200  RH  059%=      5-min Rain = 0
KGO1 131634Z 33003KT 29/20 A3013 RMK A01 T02880197  RH  058%=      5-min Rain = 0
KGO1 131635Z 35005KT 29/20 A3014 RMK A01 T02880199  RH  059%=      5-min Rain = 0
KGO1 131636Z 01008KT 29/20 A3014 RMK A01 T02880203  RH  060%=      5-min Rain = 0
KGO1 131637Z 00005KT 29/20 A3014 RMK A01 T02880203  RH  060%=      5-min Rain = 0
KGO1 131638Z 01006KT 29/20 A3014 RMK A01 T02900203  RH  059%=      5-min Rain = 0
KGO1 131639Z 35005KT 29/20 A3014 RMK A01 T02910204  RH  059%=      5-min Rain = 0
KGO1 131640Z 35008KT 29/20 A3014 RMK A01 T02920204  RH  059%=      5-min Rain = 0
KGO1 131641Z 36007KT 29/21 A3014 RMK A01 T02930206  RH  059%=      5-min Rain = 0
KGO1 131642Z 36006KT 30/21 A3014 RMK A01 T02960209  RH  059%=      5-min Rain = 0
KGO1 131643Z 00005KT 30/20 A3014 RMK A01 T02990204  RH  057%=      5-min Rain = 0
KGO1 131644Z 01007KT 30/20 A3014 RMK A01 T02950204  RH  058%=      5-min Rain = 0
KGO1 131645Z 01004KT 29/20 A3014 RMK A01 T02930202  RH  058%=      5-min Rain = 0
KGO1 131646Z 35006KT 29/20 A3014 RMK A01 T02920201  RH  058%=      5-min Rain = 0
KGO1 131647Z 34005KT 29/20 A3014 RMK A01 T02900198  RH  057%=      5-min Rain = 0
KGO1 131648Z 35006KT 29/20 A3014 RMK A01 T02880198  RH  058%=      5-min Rain = 0
KGO1 131649Z 02008KT 29/20 A3014 RMK A01 T02890200  RH  059%=      5-min Rain = 0
KGO1 131650Z 01008KT 29/20 A3014 RMK A01 T02920200  RH  058%=      5-min Rain = 0
KGO1 131651Z 01008KT 29/20 A3014 RMK A01 T02930197  RH  056%=      5-min Rain = 0
KGO1 131652Z 02007KT 29/20 A3014 RMK A01 T02920198  RH  057%=      5-min Rain = 0
KGO1 131653Z 02005KT 29/20 A3014 RMK A01 T02920195  RH  056%=      5-min Rain = 0
KGO1 131654Z 01004KT 29/20 A3014 RMK A01 T02910195  RH  056%=      5-min Rain = 0
KGO1 131655Z 35007KT 29/19 A3014 RMK A01 T02910194  RH  056%=      5-min Rain = 0
KGO1 131656Z 00006KT 29/20 A3014 RMK A01 T02920197  RH  056%=      5-min Rain = 0
KGO1 131657Z 01005KT 29/20 A3014 RMK A01 T02920198  RH  057%=      5-min Rain = 0
KGO1 131658Z 01008KT 29/20 A3014 RMK A01 T02930198  RH  056%=      5-min Rain = 0
KGO1 131659Z 02008KT 30/20 A3014 RMK A01 T02950196  RH  055%=      5-min Rain = 0
KGO1 131700Z 02005KT 30/20 A3014 RMK A01 T02970195  RH  054%=      5-min Rain = 0
KGO1 131701Z 03003KT 30/19 A3014 RMK A01 T02960192  RH  054%=      5-min Rain = 0
KGO1 131702Z 01003KT 30/20 A3014 RMK A01 T02950195  RH  055%=      5-min Rain = 0
KGO1 131703Z 36005KT 30/20 A3014 RMK A01 T02960197  RH  055%=      5-min Rain = 0
KGO1 131704Z 01005KT 30/20 A3014 RMK A01 T02990196  RH  054%=      5-min Rain = 0
KGO1 131705Z 01005KT 30/20 A3014 RMK A01 T02990198  RH  055%=      5-min Rain = 0
KGO1 131706Z 01005KT 30/20 A3014 RMK A01 T02980199  RH  055%=      5-min Rain = 0
KGO1 131707Z 36004KT 30/20 A3014 RMK A01 T02980197  RH  055%=      5-min Rain = 0
KGO1 131708Z 04006KT 30/20 A3014 RMK A01 T02980197  RH  055%=      5-min Rain = 0
KGO1 131709Z 06006KT 30/20 A3014 RMK A01 T02980196  RH  054%=      5-min Rain = 0
KGO1 131710Z 05005KT 30/19 A3014 RMK A01 T02990193  RH  053%=      5-min Rain = 0
KGO1 131711Z 05005KT 30/19 A3014 RMK A01 T02990194  RH  053%=      5-min Rain = 0
KGO1 131712Z 07005KT 30/19 A3014 RMK A01 T02990192  RH  053%=      5-min Rain = 0
KGO1 131713Z 08004KT 30/20 A3014 RMK A01 T02980195  RH  054%=      5-min Rain = 0
KGO1 131714Z 02006KT 30/20 A3014 RMK A01 T03000197  RH  054%=      5-min Rain = 0
KGO1 131715Z 01002KT 30/20 A3014 RMK A01 T03010195  RH  053%=      5-min Rain = 0
KGO1 131716Z 05003KT 30/20 A3014 RMK A01 T03010197  RH  054%=      5-min Rain = 0
KGO1 131717Z 03007KT 30/20 A3014 RMK A01 T03020198  RH  054%=      5-min Rain = 0
KGO1 131718Z 04006KT 30/20 A3014 RMK A01 T03030195  RH  053%=      5-min Rain = 0
KGO1 131719Z 04006KT 30/20 A3014 RMK A01 T03040197  RH  053%=      5-min Rain = 0
KGO1 131720Z 08003KT 31/19 A3014 RMK A01 T03050194  RH  052%=      5-min Rain = 0
KGO1 131721Z 08002KT 30/19 A3014 RMK A01 T03020193  RH  052%=      5-min Rain = 0
KGO1 131722Z 04007KT 30/19 A3014 RMK A01 T03010194  RH  053%=      5-min Rain = 0
KGO1 131723Z 02007KT 30/20 A3014 RMK A01 T03000196  RH  053%=      5-min Rain = 0
KGO1 131724Z 02008KT 30/20 A3014 RMK A01 T03020197  RH  053%=      5-min Rain = 0
KGO1 131725Z 06009KT 30/20 A3014 RMK A01 T03040197  RH  053%=      5-min Rain = 0
KGO1 131726Z 07007KT 31/20 A3014 RMK A01 T03050196  RH  052%=      5-min Rain = 0
KGO1 131727Z 06010KT 31/20 A3014 RMK A01 T03060195  RH  052%=      5-min Rain = 0
KGO1 131728Z 05007KT 31/19 A3014 RMK A01 T03050194  RH  052%=      5-min Rain = 0
KGO1 131729Z 06007KT 30/19 A3014 RMK A01 T03040194  RH  052%=      5-min Rain = 0
KGO1 131730Z 07006KT 30/20 A3014 RMK A01 T03030195  RH  052%=      5-min Rain = 0
KGO1 131731Z 05007KT 30/20 A3014 RMK A01 T03040198  RH  053%=      5-min Rain = 0
KGO1 131732Z 03005KT 31/20 A3014 RMK A01 T03070197  RH  052%=      5-min Rain = 0
KGO1 131733Z 05007KT 31/20 A3014 RMK A01 T03090199  RH  052%=      5-min Rain = 0
KGO1 131734Z 05010KT 31/20 A3014 RMK A01 T03110201  RH  052%=      5-min Rain = 0
KGO1 131735Z 05011KT 31/20 A3014 RMK A01 T03100201  RH  052%=      5-min Rain = 0
KGO1 131736Z 06010KT 31/20 A3014 RMK A01 T03090200  RH  052%=      5-min Rain = 0
KGO1 131737Z 07007KT 31/20 A3014 RMK A01 T03070199  RH  052%=      5-min Rain = 0
KGO1 131738Z 06007KT 31/20 A3014 RMK A01 T03060202  RH  054%=      5-min Rain = 0
KGO1 131739Z 06004KT 31/20 A3013 RMK A01 T03070200  RH  053%=      5-min Rain = 0
KGO1 131740Z 05002KT 31/20 A3013 RMK A01 T03080198  RH  052%=      5-min Rain = 0
KGO1 131741Z 10004KT 31/20 A3013 RMK A01 T03070198  RH  052%=      5-min Rain = 0
KGO1 131742Z 10005KT 31/20 A3013 RMK A01 T03070199  RH  053%=      5-min Rain = 0
KGO1 131743Z 07006KT 31/20 A3014 RMK A01 T03080197  RH  051%=      5-min Rain = 0
KGO1 131744Z 07007KT 31/20 A3014 RMK A01 T03090199  RH  052%=      5-min Rain = 0
KGO1 131745Z 05007KT 31/20 A3013 RMK A01 T03110197  RH  051%=      5-min Rain = 0
KGO1 131746Z 01007KT 31/20 A3014 RMK A01 T03130195  RH  050%=      5-min Rain = 0
KGO1 131747Z 01006KT 31/20 A3014 RMK A01 T03140195  RH  049%=      5-min Rain = 0
KGO1 131748Z 03006KT 31/20 A3014 RMK A01 T03140197  RH  050%=      5-min Rain = 0
KGO1 131749Z 02005KT 31/20 A3014 RMK A01 T03140198  RH  050%=      5-min Rain = 0
KGO1 131750Z 04006KT 32/20 A3014 RMK A01 T03150200  RH  051%=      5-min Rain = 0
KGO1 131751Z 05006KT 32/20 A3014 RMK A01 T03160196  RH  049%=      5-min Rain = 0
KGO1 131752Z 06004KT 31/20 A3014 RMK A01 T03110195  RH  050%=      5-min Rain = 0
KGO1 131753Z 06005KT 31/20 A3014 RMK A01 T03080198  RH  052%=      5-min Rain = 0
KGO1 131754Z 05007KT 31/20 A3014 RMK A01 T03070196  RH  052%=      5-min Rain = 0
KGO1 131755Z 01007KT 30/20 A3014 RMK A01 T03040197  RH  053%=      5-min Rain = 0
KGO1 131756Z 35007KT 30/20 A3013 RMK A01 T03020196  RH  053%=      5-min Rain = 0
KGO1 131757Z 00005KT 30/20 A3013 RMK A01 T03000195  RH  054%=      5-min Rain = 0
KGO1 131758Z 01005KT 30/20 A3013 RMK A01 T03000195  RH  053%=      5-min Rain = 0
KGO1 131759Z 34003KT 30/20 A3013 RMK A01 T03020196  RH  053%=      5-min Rain = 0
KGO1 131800Z 33004KT 31/20 A3013 RMK A01 T03060197  RH  052%=      5-min Rain = 0
KGO1 131801Z 03005KT 31/20 A3013 RMK A01 T03100195  RH  050%=      5-min Rain = 0
KGO1 131802Z 04004KT 31/19 A3013 RMK A01 T03120194  RH  050%=      5-min Rain = 0
KGO1 131803Z 05006KT 31/20 A3013 RMK A01 T03140198  RH  050%=      5-min Rain = 0
KGO1 131804Z 08006KT 32/19 A3013 RMK A01 T03170193  RH  048%=      5-min Rain = 0
KGO1 131805Z 06005KT 32/19 A3013 RMK A01 T03160192  RH  048%=      5-min Rain = 0
KGO1 131806Z 05008KT 32/19 A3013 RMK A01 T03150193  RH  049%=      5-min Rain = 0
KGO1 131807Z 05008KT 31/19 A3013 RMK A01 T03120192  RH  049%=      5-min Rain = 0
KGO1 131808Z 05008KT 31/19 A3013 RMK A01 T03090189  RH  049%=      5-min Rain = 0
KGO1 131809Z 02009KT 31/19 A3013 RMK A01 T03050190  RH  050%=      5-min Rain = 0
KGO1 131810Z 00010KT 30/19 A3013 RMK A01 T03030189  RH  051%=      5-min Rain = 0
KGO1 131811Z 01008KT 30/19 A3013 RMK A01 T03010191  RH  052%=      5-min Rain = 0
KGO1 131812Z 00007KT 31/20 A3013 RMK A01 T03060197  RH  052%=      5-min Rain = 0
KGO1 131813Z 03006KT 31/20 A3013 RMK A01 T03120199  RH  051%=      5-min Rain = 0
KGO1 131814Z 04010KT 32/20 A3013 RMK A01 T03180199  RH  049%=      5-min Rain = 0
KGO1 131815Z 03011KT 32/19 A3013 RMK A01 T03190194  RH  047%=      5-min Rain = 0
KGO1 131816Z 05009KT 32/19 A3013 RMK A01 T03190191  RH  047%=      5-min Rain = 0
KGO1 131817Z 05010KT 32/19 A3013 RMK A01 T03180192  RH  047%=      5-min Rain = 0
KGO1 131818Z 05009KT 32/19 A3013 RMK A01 T03170191  RH  047%=      5-min Rain = 0
KGO1 131819Z 05006KT 31/19 A3013 RMK A01 T03140191  RH  048%=      5-min Rain = 0
KGO1 131820Z 07010KT 31/20 A3013 RMK A01 T03110195  RH  050%=      5-min Rain = 0
KGO1 131821Z 06009KT 31/20 A3013 RMK A01 T03130199  RH  051%=      5-min Rain = 0
KGO1 131822Z 07008KT 32/20 A3013 RMK A01 T03190195  RH  048%=      5-min Rain = 0
KGO1 131823Z 08005KT 32/19 A3013 RMK A01 T03180194  RH  048%=      5-min Rain = 0
KGO1 131824Z 05009G18KT 32/20 A3013 RMK A01 T03180196  RH  048%=      5-min Rain = 0
KGO1 131825Z 05012KT 32/20 A3013 RMK A01 T03170196  RH  049%=      5-min Rain = 0
KGO1 131826Z 06010KT 31/20 A3013 RMK A01 T03130196  RH  050%=      5-min Rain = 0
KGO1 131827Z 05009KT 31/20 A3013 RMK A01 T03130198  RH  050%=      5-min Rain = 0
KGO1 131828Z 06009KT 32/19 A3013 RMK A01 T03150193  RH  048%=      5-min Rain = 0
KGO1 131829Z 07010KT 31/19 A3013 RMK A01 T03140193  RH  049%=      5-min Rain = 0
KGO1 131830Z 06009KT 32/19 A3013 RMK A01 T03150187  RH  047%=      5-min Rain = 0
KGO1 131831Z 06006KT 31/19 A3012 RMK A01 T03140190  RH  048%=      5-min Rain = 0
KGO1 131832Z 06005KT 32/19 A3012 RMK A01 T03150190  RH  047%=      5-min Rain = 0
KGO1 131833Z 08010KT 32/19 A3012 RMK A01 T03170194  RH  048%=      5-min Rain = 0
KGO1 131834Z 05009KT 32/20 A3012 RMK A01 T03200196  RH  048%=      5-min Rain = 0
KGO1 131835Z 03009KT 33/19 A3012 RMK A01 T03250191  RH  045%=      5-min Rain = 0
KGO1 131836Z 05007KT 32/19 A3012 RMK A01 T03230191  RH  046%=      5-min Rain = 0
KGO1 131837Z 07010KT 32/19 A3012 RMK A01 T03230189  RH  045%=      5-min Rain = 0
KGO1 131838Z 08008KT 32/19 A3012 RMK A01 T03220194  RH  047%=      5-min Rain = 0
KGO1 131839Z 07007KT 32/19 A3012 RMK A01 T03240191  RH  045%=      5-min Rain = 0
KGO1 131840Z 08007KT 32/19 A3012 RMK A01 T03240192  RH  046%=      5-min Rain = 0
KGO1 131841Z 07007KT 32/19 A3012 RMK A01 T03220189  RH  045%=      5-min Rain = 0
KGO1 131842Z 05012KT 32/19 A3012 RMK A01 T03240189  RH  045%=      5-min Rain = 0
KGO1 131843Z 05013KT 32/18 A3012 RMK A01 T03240182  RH  043%=      5-min Rain = 0
KGO1 131844Z 05007KT 32/18 A3012 RMK A01 T03200182  RH  044%=      5-min Rain = 0
KGO1 131845Z 05008KT 32/18 A3012 RMK A01 T03180183  RH  045%=      5-min Rain = 0
KGO1 131846Z 06009KT 32/18 A3012 RMK A01 T03170184  RH  045%=      5-min Rain = 0
KGO1 131847Z 07007KT 32/19 A3012 RMK A01 T03200187  RH  045%=      5-min Rain = 0
KGO1 131848Z 08008KT 32/19 A3012 RMK A01 T03240185  RH  044%=      5-min Rain = 0
KGO1 131849Z 07006KT 32/18 A3012 RMK A01 T03230182  RH  043%=      5-min Rain = 0
KGO1 131850Z 05006KT 32/18 A3012 RMK A01 T03210180  RH  043%=      5-min Rain = 0
KGO1 131851Z 06010KT 32/18 A3012 RMK A01 T03200180  RH  043%=      5-min Rain = 0
KGO1 131852Z 08010KT 32/18 A3012 RMK A01 T03200178  RH  043%=      5-min Rain = 0
KGO1 131853Z 08009KT 32/18 A3012 RMK A01 T03180181  RH  044%=      5-min Rain = 0
KGO1 131854Z 07009KT 32/19 A3013 RMK A01 T03160185  RH  046%=      5-min Rain = 0
KGO1 131855Z 08006KT 32/18 A3013 RMK A01 T03160184  RH  045%=      5-min Rain = 0
KGO1 131856Z 07005KT 32/18 A3012 RMK A01 T03150183  RH  045%=      5-min Rain = 0
KGO1 131857Z 06007KT 31/19 A3012 RMK A01 T03130185  RH  046%=      5-min Rain = 0
KGO1 131858Z 06007KT 32/19 A3012 RMK A01 T03170189  RH  047%=      5-min Rain = 0
KGO1 131859Z 07009KT 32/19 A3012 RMK A01 T03190190  RH  046%=      5-min Rain = 0
KGO1 131900Z 07008KT 32/19 A3012 RMK A01 T03190187  RH  045%=      5-min Rain = 0
KGO1 131901Z 06010KT 32/19 A3012 RMK A01 T03180188  RH  046%=      5-min Rain = 0
KGO1 131902Z 06006KT 32/19 A3012 RMK A01 T03180188  RH  046%=      5-min Rain = 0
KGO1 131903Z 06004G10KT 32/19 A3012 RMK A01 T03180190  RH  046%=      5-min Rain = 0
KGO1 131904Z 05010KT 32/19 A3012 RMK A01 T03200186  RH  045%=      5-min Rain = 0
KGO1 131905Z 06007KT 32/19 A3012 RMK A01 T03190185  RH  045%=      5-min Rain = 0
KGO1 131906Z 05007KT 32/18 A3012 RMK A01 T03170184  RH  045%=      5-min Rain = 0
KGO1 131907Z 08007KT 32/19 A3012 RMK A01 T03170189  RH  047%=      5-min Rain = 0
KGO1 131908Z 06008KT 32/19 A3012 RMK A01 T03200190  RH  046%=      5-min Rain = 0
KGO1 131909Z 07008KT 32/19 A3012 RMK A01 T03240190  RH  045%=      5-min Rain = 0
KGO1 131910Z 09006KT 33/19 A3012 RMK A01 T03260191  RH  045%=      5-min Rain = 0
KGO1 131911Z 08009KT 33/19 A3012 RMK A01 T03290190  RH  044%=      5-min Rain = 0
KGO1 131912Z 06008KT 33/19 A3012 RMK A01 T03300186  RH  043%=      5-min Rain = 0
KGO1 131913Z 06011KT 33/19 A3012 RMK A01 T03260187  RH  044%=      5-min Rain = 0
KGO1 131914Z 07007KT 33/19 A3012 RMK A01 T03250188  RH  044%=      5-min Rain = 0
KGO1 131915Z 06010KT 33/18 A3012 RMK A01 T03270184  RH  043%=      5-min Rain = 0
KGO1 131916Z 08009KT 33/18 A3012 RMK A01 T03250184  RH  043%=      5-min Rain = 0
KGO1 131917Z 08007KT 33/19 A3012 RMK A01 T03250186  RH  044%=      5-min Rain = 0
KGO1 131918Z 07009KT 33/18 A3012 RMK A01 T03250184  RH  043%=      5-min Rain = 0
KGO1 131919Z 05008KT 32/19 A3012 RMK A01 T03230188  RH  045%=      5-min Rain = 0
KGO1 131920Z 08009KT 33/19 A3012 RMK A01 T03250187  RH  044%=      5-min Rain = 0
KGO1 131921Z 09008KT 32/19 A3012 RMK A01 T03240186  RH  044%=      5-min Rain = 0
KGO1 131922Z 10009KT 32/19 A3012 RMK A01 T03220186  RH  044%=      5-min Rain = 0
KGO1 131923Z 09005KT 32/19 A3012 RMK A01 T03210185  RH  044%=      5-min Rain = 0
KGO1 131924Z 11007KT 32/19 A3012 RMK A01 T03200186  RH  045%=      5-min Rain = 0
KGO1 131925Z 12008KT 32/19 A3012 RMK A01 T03200187  RH  045%=      5-min Rain = 0
KGO1 131926Z 07007KT 32/19 A3012 RMK A01 T03240194  RH  046%=      5-min Rain = 0
KGO1 131927Z 06013KT 33/19 A3012 RMK A01 T03280194  RH  045%=      5-min Rain = 0
KGO1 131928Z 07013KT 33/18 A3012 RMK A01 T03270184  RH  043%=      5-min Rain = 0
KGO1 131929Z 07011KT 32/18 A3012 RMK A01 T03190181  RH  044%=      5-min Rain = 0
KGO1 131930Z 06010KT 31/18 A3012 RMK A01 T03140182  RH  045%=      5-min Rain = 0
KGO1 131931Z 06008KT 31/18 A3012 RMK A01 T03140180  RH  045%=      5-min Rain = 0
KGO1 131932Z 06006KT 32/18 A3012 RMK A01 T03160182  RH  045%=      5-min Rain = 0
KGO1 131933Z 07005KT 32/18 A3012 RMK A01 T03170183  RH  045%=      5-min Rain = 0
KGO1 131934Z 09009G14KT 32/19 A3012 RMK A01 T03200189  RH  046%=      5-min Rain = 0
KGO1 131935Z 07009KT 32/19 A3012 RMK A01 T03240189  RH  045%=      5-min Rain = 0
KGO1 131936Z 06009KT 33/19 A3012 RMK A01 T03250188  RH  044%=      5-min Rain = 0
KGO1 131937Z 07006KT 33/19 A3012 RMK A01 T03260186  RH  043%=      5-min Rain = 0
KGO1 131938Z 08007KT 32/19 A3012 RMK A01 T03240185  RH  044%=      5-min Rain = 0
KGO1 131939Z 09008KT 32/19 A3012 RMK A01 T03230188  RH  045%=      5-min Rain = 0
KGO1 131940Z 10014G20KT 33/19 A3012 RMK A01 T03260189  RH  044%=      5-min Rain = 0
KGO1 131941Z 09014G21KT 33/19 A3012 RMK A01 T03280186  RH  043%=      5-min Rain = 0
KGO1 131942Z 10010KT 33/19 A3012 RMK A01 T03250186  RH  044%=      5-min Rain = 0
KGO1 131943Z 08009KT 33/19 A3012 RMK A01 T03250186  RH  044%=      5-min Rain = 0
KGO1 131944Z 08006KT 33/19 A3012 RMK A01 T03260188  RH  044%=      5-min Rain = 0
KGO1 131945Z 10007KT 33/19 A3012 RMK A01 T03270186  RH  043%=      5-min Rain = 0
KGO1 131946Z 11006KT 33/18 A3012 RMK A01 T03270182  RH  042%=      5-min Rain = 0
KGO1 131947Z 10008KT 32/19 A3012 RMK A01 T03240186  RH  044%=      5-min Rain = 0
KGO1 131948Z 08008KT 33/19 A3012 RMK A01 T03260187  RH  044%=      5-min Rain = 0
KGO1 131949Z 08009KT 33/19 A3012 RMK A01 T03290192  RH  044%=      5-min Rain = 0
KGO1 131950Z 09011KT 33/19 A3012 RMK A01 T03310187  RH  043%=      5-min Rain = 0
KGO1 131951Z 11013KT 33/19 A3012 RMK A01 T03280186  RH  043%=      5-min Rain = 0
KGO1 131952Z 08011KT 33/18 A3012 RMK A01 T03270184  RH  043%=      5-min Rain = 0
KGO1 131953Z 09011KT 33/19 A3012 RMK A01 T03280185  RH  043%=      5-min Rain = 0
KGO1 131954Z 09011KT 33/18 A3012 RMK A01 T03280181  RH  042%=      5-min Rain = 0
KGO1 131955Z 10010KT 33/18 A3012 RMK A01 T03260179  RH  042%=      5-min Rain = 0
KGO1 131956Z 11007KT 32/18 A3011 RMK A01 T03240178  RH  042%=      5-min Rain = 0
KGO1 131957Z 09012KT 32/18 A3012 RMK A01 T03230180  RH  043%=      5-min Rain = 0
KGO1 131958Z 08009KT 32/18 A3012 RMK A01 T03240180  RH  042%=      5-min Rain = 0
KGO1 131959Z 06007KT 32/18 A3011 RMK A01 T03240180  RH  042%=      5-min Rain = 0
KGO1 132000Z 06009KT 32/18 A3011 RMK A01 T03240181  RH  043%=      5-min Rain = 0
KGO1 132001Z 05009KT 32/18 A3011 RMK A01 T03240183  RH  043%=      5-min Rain = 0
KGO1 132002Z 08009G15KT 33/19 A3011 RMK A01 T03270185  RH  043%=      5-min Rain = 0
KGO1 132003Z 09009KT 33/18 A3011 RMK A01 T03280179  RH  041%=      5-min Rain = 0
KGO1 132004Z 06008KT 33/18 A3011 RMK A01 T03250179  RH  042%=      5-min Rain = 0
KGO1 132005Z 06005KT 32/18 A3011 RMK A01 T03230178  RH  042%=      5-min Rain = 0
KGO1 132006Z 05006KT 32/18 A3011 RMK A01 T03230177  RH  042%=      5-min Rain = 0
KGO1 132007Z 08010KT 32/19 A3011 RMK A01 T03240185  RH  044%=      5-min Rain = 0
KGO1 132008Z 08010KT 33/18 A3011 RMK A01 T03270182  RH  042%=      5-min Rain = 0
KGO1 132009Z 09011KT 33/18 A3011 RMK A01 T03260180  RH  042%=      5-min Rain = 0
KGO1 132010Z 06009KT 33/18 A3011 RMK A01 T03260179  RH  042%=      5-min Rain = 0
KGO1 132011Z 06007KT 32/18 A3011 RMK A01 T03220176  RH  042%=      5-min Rain = 0
KGO1 132012Z 07007KT 32/18 A3011 RMK A01 T03200178  RH  043%=      5-min Rain = 0
KGO1 132013Z 06011KT 32/19 A3011 RMK A01 T03230185  RH  044%=      5-min Rain = 0
KGO1 132014Z 06009KT 32/18 A3011 RMK A01 T03240183  RH  043%=      5-min Rain = 0
KGO1 132015Z 06007KT 32/18 A3011 RMK A01 T03200181  RH  044%=      5-min Rain = 0
KGO1 132016Z 05005KT 32/18 A3011 RMK A01 T03180183  RH  045%=      5-min Rain = 0
KGO1 132017Z 08008KT 32/18 A3011 RMK A01 T03170183  RH  045%=      5-min Rain = 0
KGO1 132018Z 11012KT 32/19 A3011 RMK A01 T03190191  RH  047%=      5-min Rain = 0
KGO1 132019Z 10010KT 32/19 A3011 RMK A01 T03220189  RH  045%=      5-min Rain = 0
KGO1 132020Z 10011KT 32/19 A3011 RMK A01 T03210189  RH  046%=      5-min Rain = 0
KGO1 132021Z 12008KT 32/18 A3011 RMK A01 T03200184  RH  044%=      5-min Rain = 0
KGO1 132022Z 10008KT 32/18 A3011 RMK A01 T03190184  RH  045%=      5-min Rain = 0
KGO1 132023Z 09009KT 32/19 A3011 RMK A01 T03200189  RH  046%=      5-min Rain = 0
KGO1 132024Z 09010KT 33/19 A3011 RMK A01 T03260191  RH  045%=      5-min Rain = 0
KGO1 132025Z 10009KT 33/19 A3011 RMK A01 T03290192  RH  044%=      5-min Rain = 0
KGO1 132026Z 13010KT 33/19 A3011 RMK A01 T03330190  RH  043%=      5-min Rain = 0
KGO1 132027Z 14005KT 33/19 A3011 RMK A01 T03290187  RH  043%=      5-min Rain = 0
KGO1 132028Z 11004KT 32/19 A3011 RMK A01 T03230187  RH  044%=      5-min Rain = 0
KGO1 132029Z 10007KT 32/19 A3011 RMK A01 T03220189  RH  045%=      5-min Rain = 0
KGO1 132030Z 08010KT 33/19 A3011 RMK A01 T03250194  RH  046%=      5-min Rain = 0
KGO1 132031Z 08009KT 32/19 A3011 RMK A01 T03230194  RH  047%=      5-min Rain = 0
KGO1 132032Z 09010KT 32/20 A3011 RMK A01 T03210195  RH  047%=      5-min Rain = 0
KGO1 132033Z 10013KT 32/19 A3011 RMK A01 T03210192  RH  047%=      5-min Rain = 0
KGO1 132034Z 09008KT 32/19 A3011 RMK A01 T03220192  RH  046%=      5-min Rain = 0
KGO1 132035Z 07006KT 32/19 A301 RMK A01 T03230191  RH  046%=      5-min Rain = 0
KGO1 132036Z 09009KT 32/20 A301 RMK A01 T03240195  RH  046%=      5-min Rain = 0
KGO1 132037Z 09010KT 33/20 A301 RMK A01 T03280198  RH  046%=      5-min Rain = 0
KGO1 132038Z 11010KT 33/20 A301 RMK A01 T03300195  RH  045%=      5-min Rain = 0
KGO1 132039Z 12008KT 33/19 A301 RMK A01 T03250193  RH  046%=      5-min Rain = 0
KGO1 132040Z 12009KT 32/20 A301 RMK A01 T03230195  RH  047%=      5-min Rain = 0
KGO1 132041Z 11009KT 33/19 A301 RMK A01 T03250193  RH  046%=      5-min Rain = 0
KGO1 132042Z 10009KT 32/19 A301 RMK A01 T03230192  RH  046%=      5-min Rain = 0
KGO1 132043Z 10008KT 32/19 A301 RMK A01 T03220191  RH  046%=      5-min Rain = 0
KGO1 132044Z 12006KT 32/19 A301 RMK A01 T03210192  RH  046%=      5-min Rain = 0
KGO1 132045Z 12006KT 32/19 A301 RMK A01 T03230191  RH  046%=      5-min Rain = 0
KGO1 132046Z 12011KT 32/19 A301 RMK A01 T03230193  RH  046%=      5-min Rain = 0
KGO1 132047Z 13011KT 32/20 A301 RMK A01 T03240196  RH  047%=      5-min Rain = 0
KGO1 132048Z 11012KT 33/20 A301 RMK A01 T03280195  RH  046%=      5-min Rain = 0
KGO1 132049Z 10010KT 33/20 A301 RMK A01 T03250195  RH  046%=      5-min Rain = 0
KGO1 132050Z 11008KT 32/19 A301 RMK A01 T03230193  RH  046%=      5-min Rain = 0
KGO1 132051Z 11009KT 32/20 A301 RMK A01 T03210195  RH  047%=      5-min Rain = 0
KGO1 132052Z 11011KT 32/20 A301 RMK A01 T03230195  RH  047%=      5-min Rain = 0
KGO1 132053Z 12009G14KT 32/19 A301 RMK A01 T03240194  RH  046%=      5-min Rain = 0
KGO1 132054Z 13006KT 32/19 A301 RMK A01 T03230192  RH  046%=      5-min Rain = 0
KGO1 132055Z 11009KT 32/19 A301 RMK A01 T03210194  RH  047%=      5-min Rain = 0
KGO1 132056Z 12007KT 32/19 A301 RMK A01 T03210191  RH  046%=      5-min Rain = 0
KGO1 132057Z 08006G11KT 32/19 A301 RMK A01 T03200193  RH  047%=      5-min Rain = 0
KGO1 132058Z 07011KT 32/19 A301 RMK A01 T03210194  RH  047%=      5-min Rain = 0
KGO1 132059Z 08009KT 32/19 A301 RMK A01 T03210193  RH  047%=      5-min Rain = 0
KGO1 132100Z 07006KT 32/19 A301 RMK A01 T03190193  RH  047%=      5-min Rain = 0
KGO1 132101Z 08003KT 32/20 A301 RMK A01 T03180195  RH  048%=      5-min Rain = 0
KGO1 132102Z 12006KT 32/19 A301 RMK A01 T03200194  RH  047%=      5-min Rain = 0
KGO1 132103Z 12006KT 32/19 A301 RMK A01 T03220194  RH  047%=      5-min Rain = 0
KGO1 132104Z 09011KT 32/19 A301 RMK A01 T03230193  RH  046%=      5-min Rain = 0
KGO1 132105Z 06009KT 32/19 A301 RMK A01 T03230192  RH  046%=      5-min Rain = 0
KGO1 132106Z 09011KT 32/19 A301 RMK A01 T03240193  RH  046%=      5-min Rain = 0
KGO1 132107Z 08010KT 32/20 A301 RMK A01 T03240195  RH  046%=      5-min Rain = 0
KGO1 132108Z 08009KT 32/20 A301 RMK A01 T03240196  RH  047%=      5-min Rain = 0
KGO1 132109Z 11008KT 33/20 A301 RMK A01 T03250196  RH  047%=      5-min Rain = 0
KGO1 132110Z 10010KT 33/20 A301 RMK A01 T03280196  RH  046%=      5-min Rain = 0
KGO1 132111Z 09004KT 33/19 A301 RMK A01 T03260190  RH  045%=      5-min Rain = 0
KGO1 132112Z 12007KT 32/19 A301 RMK A01 T03230192  RH  046%=      5-min Rain = 0
KGO1 132113Z 11009G15KT 32/19 A301 RMK A01 T03230192  RH  046%=      5-min Rain = 0
KGO1 132114Z 13012KT 33/19 A301 RMK A01 T03250192  RH  045%=      5-min Rain = 0
KGO1 132115Z 13010KT 32/19 A301 RMK A01 T03240192  RH  046%=      5-min Rain = 0
KGO1 132116Z 11008KT 32/19 A301 RMK A01 T03220190  RH  046%=      5-min Rain = 0
KGO1 132117Z 10010KT 32/19 A301 RMK A01 T03230190  RH  045%=      5-min Rain = 0
KGO1 132118Z 11009G14KT 32/19 A3009 RMK A01 T03240188  RH  044%=      5-min Rain = 0
KGO1 132119Z 09014KT 32/19 A301 RMK A01 T03240189  RH  045%=      5-min Rain = 0
KGO1 132120Z 09010KT 32/19 A301 RMK A01 T03240188  RH  045%=      5-min Rain = 0
KGO1 132121Z 10011KT 32/19 A301 RMK A01 T03220188  RH  045%=      5-min Rain = 0
KGO1 132122Z 10009KT 32/19 A301 RMK A01 T03220187  RH  045%=      5-min Rain = 0
KGO1 132123Z 09005KT 32/19 A301 RMK A01 T03220189  RH  045%=      5-min Rain = 0
KGO1 132124Z 11005KT 32/19 A3009 RMK A01 T03220188  RH  045%=      5-min Rain = 0
KGO1 132125Z 13006KT 32/19 A3009 RMK A01 T03240189  RH  045%=      5-min Rain = 0
KGO1 132126Z 08006KT 33/19 A3009 RMK A01 T03270189  RH  044%=      5-min Rain = 0
KGO1 132127Z 08006KT 33/19 A3009 RMK A01 T03280187  RH  043%=      5-min Rain = 0
KGO1 132128Z 08007KT 33/19 A3009 RMK A01 T03260187  RH  044%=      5-min Rain = 0
KGO1 132129Z 10013KT 32/19 A3009 RMK A01 T03230189  RH  045%=      5-min Rain = 0
KGO1 132130Z 09011KT 32/19 A3009 RMK A01 T03230190  RH  045%=      5-min Rain = 0
KGO1 132131Z 08010KT 32/19 A3009 RMK A01 T03230191  RH  046%=      5-min Rain = 0
KGO1 132132Z 09007KT 32/19 A3009 RMK A01 T03220191  RH  046%=      5-min Rain = 0
KGO1 132133Z 09007KT 32/19 A3009 RMK A01 T03220189  RH  045%=      5-min Rain = 0
KGO1 132134Z 09009KT 32/19 A3009 RMK A01 T03210189  RH  046%=      5-min Rain = 0
KGO1 132135Z 10005KT 32/19 A3009 RMK A01 T03190188  RH  046%=      5-min Rain = 0
KGO1 132136Z 07005KT 32/19 A3009 RMK A01 T03190189  RH  046%=      5-min Rain = 0
KGO1 132137Z 07005KT 32/19 A3009 RMK A01 T03190189  RH  046%=      5-min Rain = 0
KGO1 132138Z 07007KT 32/19 A3009 RMK A01 T03200188  RH  046%=      5-min Rain = 0
KGO1 132139Z 10008KT 32/19 A3009 RMK A01 T03200189  RH  046%=      5-min Rain = 0
KGO1 132140Z 07007KT 32/19 A3009 RMK A01 T03210188  RH  045%=      5-min Rain = 0
KGO1 132141Z 08006KT 32/19 A3009 RMK A01 T03210189  RH  046%=      5-min Rain = 0
KGO1 132142Z 08008KT 32/19 A3009 RMK A01 T03230190  RH  045%=      5-min Rain = 0
KGO1 132143Z 07007KT 33/19 A3009 RMK A01 T03260191  RH  045%=      5-min Rain = 0
KGO1 132144Z 08011G16KT 33/19 A3009 RMK A01 T03290191  RH  044%=      5-min Rain = 0
KGO1 132145Z 09009G15KT 33/19 A3009 RMK A01 T03270186  RH  043%=      5-min Rain = 0
KGO1 132146Z 08004KT 32/19 A3009 RMK A01 T03220186  RH  044%=      5-min Rain = 0
KGO1 132147Z 08004KT 32/19 A3009 RMK A01 T03210187  RH  045%=      5-min Rain = 0
KGO1 132148Z 09007KT 32/19 A3009 RMK A01 T03210186  RH  045%=      5-min Rain = 0
KGO1 132149Z 11010KT 32/19 A3009 RMK A01 T03210189  RH  046%=      5-min Rain = 0
KGO1 132150Z 11012KT 32/19 A3009 RMK A01 T03210190  RH  046%=      5-min Rain = 0
KGO1 132151Z 12009KT 32/19 A3009 RMK A01 T03210190  RH  046%=      5-min Rain = 0
KGO1 132152Z 13008KT 32/19 A3009 RMK A01 T03220190  RH  046%=      5-min Rain = 0
KGO1 132153Z 15006KT 32/19 A3008 RMK A01 T03230188  RH  045%=      5-min Rain = 0
KGO1 132154Z 13010KT 32/19 A3008 RMK A01 T03220189  RH  045%=      5-min Rain = 0
KGO1 132155Z 12011KT 32/19 A3008 RMK A01 T03220188  RH  045%=      5-min Rain = 0
KGO1 132156Z 10011KT 32/19 A3008 RMK A01 T03220191  RH  046%=      5-min Rain = 0
KGO1 132157Z 09013KT 33/19 A3008 RMK A01 T03270193  RH  045%=      5-min Rain = 0
KGO1 132158Z 09014KT 33/19 A3008 RMK A01 T03280191  RH  044%=      5-min Rain = 0
KGO1 132159Z 10014KT 33/19 A3008 RMK A01 T03250190  RH  045%=      5-min Rain = 0
KGO1 132200Z 09011KT 32/19 A3008 RMK A01 T03230188  RH  045%=      5-min Rain = 0
KGO1 132201Z 10008KT 32/19 A3008 RMK A01 T03210188  RH  045%=      5-min Rain = 0
KGO1 132202Z 10006KT 32/19 A3008 RMK A01 T03200188  RH  045%=      5-min Rain = 0
KGO1 132203Z 09008KT 32/19 A3008 RMK A01 T03190187  RH  046%=      5-min Rain = 0
KGO1 132204Z 08011KT 32/19 A3008 RMK A01 T03200189  RH  046%=      5-min Rain = 0
KGO1 132205Z 07009KT 32/19 A3008 RMK A01 T03200189  RH  046%=      5-min Rain = 0
KGO1 132206Z 07007KT 32/19 A3008 RMK A01 T03200190  RH  046%=      5-min Rain = 0
KGO1 132207Z 06008KT 32/19 A3008 RMK A01 T03200187  RH  045%=      5-min Rain = 0
KGO1 132208Z 06005KT 32/19 A3008 RMK A01 T03200188  RH  046%=      5-min Rain = 0
KGO1 132209Z 08008KT 32/19 A3008 RMK A01 T03230188  RH  045%=      5-min Rain = 0
KGO1 132210Z 09011KT 32/19 A3008 RMK A01 T03230187  RH  045%=      5-min Rain = 0
KGO1 132211Z 09011KT 32/19 A3008 RMK A01 T03210187  RH  045%=      5-min Rain = 0
KGO1 132212Z 10010KT 32/19 A3008 RMK A01 T03210187  RH  045%=      5-min Rain = 0
KGO1 132213Z 09009KT 32/19 A3008 RMK A01 T03210185  RH  045%=      5-min Rain = 0
KGO1 132214Z 08008KT 32/18 A3008 RMK A01 T03200184  RH  045%=      5-min Rain = 0
KGO1 132215Z 08010KT 32/19 A3008 RMK A01 T03200187  RH  045%=      5-min Rain = 0
KGO1 132216Z 08006KT 32/19 A3008 RMK A01 T03210187  RH  045%=      5-min Rain = 0
KGO1 132217Z 08008KT 32/19 A3008 RMK A01 T03230187  RH  045%=      5-min Rain = 0
KGO1 132218Z 09010KT 32/19 A3008 RMK A01 T03230189  RH  045%=      5-min Rain = 0
KGO1 132219Z 09011KT 32/19 A3008 RMK A01 T03220188  RH  045%=      5-min Rain = 0
KGO1 132220Z 08011KT 32/19 A3008 RMK A01 T03210189  RH  046%=      5-min Rain = 0
KGO1 132221Z 07009KT 32/19 A3008 RMK A01 T03210190  RH  046%=      5-min Rain = 0
KGO1 132222Z 09011KT 32/19 A3008 RMK A01 T03210189  RH  046%=      5-min Rain = 0
KGO1 132223Z 08009KT 32/19 A3008 RMK A01 T03200188  RH  046%=      5-min Rain = 0
KGO1 132224Z 09007KT 32/19 A3008 RMK A01 T03180188  RH  046%=      5-min Rain = 0
KGO1 132225Z 09009G14KT 32/19 A3008 RMK A01 T03200191  RH  046%=      5-min Rain = 0
KGO1 132226Z 10012KT 32/19 A3008 RMK A01 T03210190  RH  046%=      5-min Rain = 0
KGO1 132227Z 10011KT 32/19 A3008 RMK A01 T03210188  RH  045%=      5-min Rain = 0
KGO1 132228Z 11008KT 32/19 A3008 RMK A01 T03200189  RH  046%=      5-min Rain = 0
KGO1 132229Z 11009G14KT 32/19 A3008 RMK A01 T03210189  RH  046%=      5-min Rain = 0
KGO1 132230Z 11012KT 32/19 A3008 RMK A01 T03210189  RH  045%=      5-min Rain = 0
KGO1 132231Z 10013KT 32/19 A3008 RMK A01 T03200188  RH  046%=      5-min Rain = 0
KGO1 132232Z 10009KT 32/19 A3008 RMK A01 T03190187  RH  045%=      5-min Rain = 0
KGO1 132233Z 12010KT 32/19 A3008 RMK A01 T03180188  RH  046%=      5-min Rain = 0
KGO1 132234Z 11009KT 32/19 A3008 RMK A01 T03200188  RH  046%=      5-min Rain = 0
KGO1 132235Z 11007KT 32/19 A3008 RMK A01 T03220188  RH  045%=      5-min Rain = 0
KGO1 132236Z 13006KT 32/19 A3008 RMK A01 T03210186  RH  045%=      5-min Rain = 0
KGO1 132237Z 11005KT 32/19 A3008 RMK A01 T03180186  RH  045%=      5-min Rain = 0
KGO1 132238Z 12009KT 32/19 A3008 RMK A01 T03180188  RH  046%=      5-min Rain = 0
KGO1 132239Z 13009KT 32/19 A3008 RMK A01 T03210189  RH  046%=      5-min Rain = 0
KGO1 132240Z 12010KT 32/19 A3008 RMK A01 T03230189  RH  045%=      5-min Rain = 0
KGO1 132241Z 12009KT 32/19 A3008 RMK A01 T03230189  RH  045%=      5-min Rain = 0
KGO1 132242Z 12012KT 32/19 A3008 RMK A01 T03230190  RH  045%=      5-min Rain = 0
KGO1 132243Z 10013KT 32/19 A3008 RMK A01 T03220192  RH  046%=      5-min Rain = 0
KGO1 132244Z 09013KT 32/19 A3008 RMK A01 T03220191  RH  046%=      5-min Rain = 0
KGO1 132245Z 09010KT 32/19 A3008 RMK A01 T03220190  RH  046%=      5-min Rain = 0
KGO1 132246Z 10007KT 32/19 A3008 RMK A01 T03200188  RH  046%=      5-min Rain = 0
KGO1 132247Z 08003KT 32/19 A3008 RMK A01 T03150186  RH  046%=      5-min Rain = 0
KGO1 132248Z 10004KT 31/19 A3008 RMK A01 T03140187  RH  047%=      5-min Rain = 0
KGO1 132249Z 13006KT 31/19 A3008 RMK A01 T03140188  RH  047%=      5-min Rain = 0
KGO1 132250Z 14007KT 32/19 A3008 RMK A01 T03150188  RH  047%=      5-min Rain = 0
KGO1 132251Z 13007KT 32/19 A3008 RMK A01 T03170189  RH  047%=      5-min Rain = 0
KGO1 132252Z 10011KT 32/19 A3008 RMK A01 T03200193  RH  047%=      5-min Rain = 0
KGO1 132253Z 10013KT 32/19 A3008 RMK A01 T03210190  RH  046%=      5-min Rain = 0
KGO1 132254Z 09010KT 32/19 A3008 RMK A01 T03180187  RH  046%=      5-min Rain = 0
KGO1 132255Z 12008KT 32/19 A3008 RMK A01 T03160188  RH  047%=      5-min Rain = 0
KGO1 132256Z 11008KT 32/19 A3008 RMK A01 T03150189  RH  047%=      5-min Rain = 0
KGO1 132257Z 11005KT 32/19 A3008 RMK A01 T03160190  RH  047%=      5-min Rain = 0
KGO1 132258Z 11010KT 32/19 A3008 RMK A01 T03190191  RH  047%=      5-min Rain = 0
KGO1 132259Z 11011KT 32/19 A3008 RMK A01 T03210190  RH  046%=      5-min Rain = 0
KGO1 132300Z 09011KT 32/19 A3009 RMK A01 T03210190  RH  046%=      5-min Rain = 0
KGO1 132301Z 09011KT 32/19 A3009 RMK A01 T03200188  RH  046%=      5-min Rain = 0
KGO1 132302Z 09008KT 32/19 A3009 RMK A01 T03190190  RH  046%=      5-min Rain = 0
KGO1 132303Z 09009KT 32/19 A3009 RMK A01 T03190191  RH  047%=      5-min Rain = 0
KGO1 132304Z 10008KT 32/19 A3009 RMK A01 T03200188  RH  046%=      5-min Rain = 0
KGO1 132305Z 10006KT 32/19 A3009 RMK A01 T03180189  RH  046%=      5-min Rain = 0
KGO1 132306Z 13009KT 32/19 A3009 RMK A01 T03180190  RH  047%=      5-min Rain = 0
KGO1 132307Z 11011KT 32/19 A3009 RMK A01 T03180190  RH  047%=      5-min Rain = 0
KGO1 132308Z 11009KT 32/19 A3009 RMK A01 T03180189  RH  046%=      5-min Rain = 0
KGO1 132309Z 11007KT 32/19 A3008 RMK A01 T03190188  RH  046%=      5-min Rain = 0
KGO1 132310Z 13006KT 32/19 A3008 RMK A01 T03180189  RH  046%=      5-min Rain = 0
KGO1 132311Z 13005KT 32/19 A3008 RMK A01 T03180187  RH  046%=      5-min Rain = 0
KGO1 132312Z 10008KT 32/19 A3008 RMK A01 T03180189  RH  046%=      5-min Rain = 0
KGO1 132313Z 09007KT 32/19 A3008 RMK A01 T03170190  RH  047%=      5-min Rain = 0
KGO1 132314Z 09008KT 32/19 A3008 RMK A01 T03170192  RH  047%=      5-min Rain = 0
KGO1 132315Z 10012KT 32/19 A3008 RMK A01 T03160193  RH  048%=      5-min Rain = 0
KGO1 132316Z 11013KT 32/19 A3008 RMK A01 T03170192  RH  048%=      5-min Rain = 0
KGO1 132317Z 11010KT 32/19 A3008 RMK A01 T03170191  RH  047%=      5-min Rain = 0
KGO1 132318Z 11009KT 31/19 A3008 RMK A01 T03140192  RH  048%=      5-min Rain = 0
KGO1 132319Z 09009KT 31/19 A3008 RMK A01 T03140190  RH  048%=      5-min Rain = 0
KGO1 132320Z 09008KT 31/19 A3008 RMK A01 T03130190  RH  048%=      5-min Rain = 0
KGO1 132321Z 09007KT 31/19 A3008 RMK A01 T03130189  RH  048%=      5-min Rain = 0
KGO1 132322Z 08005KT 31/19 A3008 RMK A01 T03130188  RH  048%=      5-min Rain = 0
KGO1 132323Z 07005KT 31/19 A3008 RMK A01 T03120190  RH  048%=      5-min Rain = 0
KGO1 132324Z 08006G11KT 31/19 A3008 RMK A01 T03120190  RH  048%=      5-min Rain = 0
KGO1 132325Z 10008KT 31/19 A3008 RMK A01 T03120188  RH  048%=      5-min Rain = 0
KGO1 132326Z 10008KT 31/19 A3008 RMK A01 T03130188  RH  047%=      5-min Rain = 0
KGO1 132327Z 10011KT 31/19 A3008 RMK A01 T03130189  RH  048%=      5-min Rain = 0
KGO1 132328Z 12010KT 32/19 A3008 RMK A01 T03150189  RH  047%=      5-min Rain = 0
KGO1 132329Z 11009KT 32/19 A3008 RMK A01 T03160187  RH  046%=      5-min Rain = 0
KGO1 132330Z 11013KT 32/19 A3008 RMK A01 T03150187  RH  047%=      5-min Rain = 0
KGO1 132331Z 11009KT 31/19 A3008 RMK A01 T03130188  RH  048%=      5-min Rain = 0
KGO1 132332Z 12007KT 31/19 A3008 RMK A01 T03120187  RH  048%=      5-min Rain = 0
KGO1 132333Z 12011KT 31/19 A3008 RMK A01 T03110189  RH  048%=      5-min Rain = 0
KGO1 132334Z 10011KT 31/19 A3008 RMK A01 T03120191  RH  049%=      5-min Rain = 0
KGO1 132335Z 10012KT 31/19 A3008 RMK A01 T03140189  RH  047%=      5-min Rain = 0
KGO1 132336Z 09010KT 31/19 A3008 RMK A01 T03140189  RH  047%=      5-min Rain = 0
KGO1 132337Z 08007KT 31/19 A3008 RMK A01 T03130188  RH  047%=      5-min Rain = 0
KGO1 132338Z 11009KT 31/19 A3008 RMK A01 T03120190  RH  048%=      5-min Rain = 0
KGO1 132339Z 08011KT 31/19 A3008 RMK A01 T03130192  RH  049%=      5-min Rain = 0
KGO1 132340Z 08010KT 31/19 A3008 RMK A01 T03130191  RH  048%=      5-min Rain = 0
KGO1 132341Z 08009KT 31/19 A3008 RMK A01 T03110191  RH  049%=      5-min Rain = 0
KGO1 132342Z 09009KT 31/19 A3008 RMK A01 T03090191  RH  049%=      5-min Rain = 0
KGO1 132343Z 09008KT 31/19 A3008 RMK A01 T03090191  RH  050%=      5-min Rain = 0
KGO1 132344Z 09008KT 31/19 A3008 RMK A01 T03090189  RH  049%=      5-min Rain = 0
KGO1 132345Z 07006KT 31/19 A3008 RMK A01 T03090189  RH  049%=      5-min Rain = 0
KGO1 132346Z 08007KT 31/19 A3008 RMK A01 T03100187  RH  048%=      5-min Rain = 0
KGO1 132347Z 09009KT 31/19 A3008 RMK A01 T03110188  RH  048%=      5-min Rain = 0
KGO1 132348Z 10008KT 31/19 A3008 RMK A01 T03110186  RH  047%=      5-min Rain = 0
KGO1 132349Z 09008KT 31/19 A3008 RMK A01 T03100188  RH  048%=      5-min Rain = 0
KGO1 132350Z 09009KT 31/19 A3008 RMK A01 T03100189  RH  049%=      5-min Rain = 0
KGO1 132351Z 09010KT 31/19 A3008 RMK A01 T03090187  RH  048%=      5-min Rain = 0
KGO1 132352Z 10008KT 31/19 A3008 RMK A01 T03090187  RH  048%=      5-min Rain = 0
KGO1 132353Z 09009KT 31/19 A3008 RMK A01 T03090188  RH  048%=      5-min Rain = 0
KGO1 132354Z 08008KT 31/19 A3008 RMK A01 T03090188  RH  049%=      5-min Rain = 0
KGO1 132355Z 09009KT 31/19 A3008 RMK A01 T03090188  RH  049%=      5-min Rain = 0
KGO1 132356Z 09008KT 31/19 A3008 RMK A01 T03090189  RH  049%=      5-min Rain = 0
KGO1 132357Z 09010KT 31/19 A3008 RMK A01 T03090189  RH  049%=      5-min Rain = 0
KGO1 132358Z 09009KT 31/19 A3008 RMK A01 T03090188  RH  048%=      5-min Rain = 0
KGO1 132359Z 09009KT 31/19 A3009 RMK A01 T03090190  RH  049%=      5-min Rain = 0
KGO1 140000Z 08009KT 31/19 A3009 RMK A01 T03080191  RH  050%=      5-min Rain = 0
KGO1 140001Z 09010KT 31/19 A3009 RMK A01 T03080188  RH  049%=      5-min Rain = 0
KGO1 140002Z 08009KT 31/19 A3009 RMK A01 T03080189  RH  049%=      5-min Rain = 0
KGO1 140003Z 10007G13KT 31/19 A3008 RMK A01 T03070190  RH  050%=      5-min Rain = 0
KGO1 140004Z 09010KT 31/19 A3008 RMK A01 T03070188  RH  049%=      5-min Rain = 0
KGO1 140005Z 09009KT 31/19 A3008 RMK A01 T03070188  RH  049%=      5-min Rain = 0
KGO1 140006Z 08007KT 31/19 A3008 RMK A01 T03070189  RH  049%=      5-min Rain = 0
KGO1 140007Z 09005KT 31/19 A3008 RMK A01 T03080187  RH  049%=      5-min Rain = 0
KGO1 140008Z 08007KT 31/19 A3008 RMK A01 T03080190  RH  049%=      5-min Rain = 0
KGO1 140009Z 08008KT 31/19 A3008 RMK A01 T03090188  RH  049%=      5-min Rain = 0
KGO1 140010Z 09007KT 31/19 A3008 RMK A01 T03080189  RH  049%=      5-min Rain = 0
KGO1 140011Z 08007KT 31/19 A3008 RMK A01 T03080187  RH  048%=      5-min Rain = 0
KGO1 140012Z 08007KT 31/19 A3008 RMK A01 T03070187  RH  049%=      5-min Rain = 0
KGO1 140013Z 08008KT 31/19 A3008 RMK A01 T03060187  RH  049%=      5-min Rain = 0
KGO1 140014Z 09009KT 31/19 A3008 RMK A01 T03050186  RH  049%=      5-min Rain = 0
KGO1 140015Z 09008KT 31/18 A3008 RMK A01 T03050184  RH  049%=      5-min Rain = 0
KGO1 140016Z 08009KT 30/18 A3009 RMK A01 T03040184  RH  049%=      5-min Rain = 0
KGO1 140017Z 09008KT 30/19 A3009 RMK A01 T03040185  RH  049%=      5-min Rain = 0
KGO1 140018Z 08008KT 30/18 A3009 RMK A01 T03040184  RH  049%=      5-min Rain = 0
KGO1 140019Z 08008KT 30/18 A3009 RMK A01 T03030184  RH  049%=      5-min Rain = 0
KGO1 140020Z 08007KT 30/18 A3009 RMK A01 T03030184  RH  049%=      5-min Rain = 0
KGO1 140021Z 09008KT 30/18 A3009 RMK A01 T03030184  RH  049%=      5-min Rain = 0
KGO1 140022Z 09010KT 30/19 A3008 RMK A01 T03040185  RH  049%=      5-min Rain = 0
KGO1 140023Z 09009KT 31/18 A3008 RMK A01 T03050184  RH  049%=      5-min Rain = 0
KGO1 140024Z 09009KT 30/19 A3008 RMK A01 T03040185  RH  049%=      5-min Rain = 0
KGO1 140025Z 08010KT 30/18 A3008 RMK A01 T03040184  RH  049%=      5-min Rain = 0
KGO1 140026Z 08007KT 30/19 A3008 RMK A01 T03030185  RH  049%=      5-min Rain = 0
KGO1 140027Z 09008KT 30/19 A3008 RMK A01 T03030185  RH  049%=      5-min Rain = 0
KGO1 140028Z 09007KT 30/19 A3008 RMK A01 T03020185  RH  049%=      5-min Rain = 0
KGO1 140029Z 09010KT 30/19 A3008 RMK A01 T03020187  RH  050%=      5-min Rain = 0
KGO1 140030Z 09010KT 30/19 A3008 RMK A01 T03020188  RH  050%=      5-min Rain = 0
KGO1 140031Z 09008KT 30/19 A3008 RMK A01 T03010187  RH  051%=      5-min Rain = 0
KGO1 140032Z 08008KT 30/19 A3008 RMK A01 T03010189  RH  051%=      5-min Rain = 0
KGO1 140033Z 09008KT 30/19 A3008 RMK A01 T03010188  RH  051%=      5-min Rain = 0
KGO1 140034Z 08009KT 30/19 A3008 RMK A01 T03010189  RH  051%=      5-min Rain = 0
KGO1 140035Z 08011KT 30/19 A3008 RMK A01 T03010189  RH  051%=      5-min Rain = 0
KGO1 140036Z 08008KT 30/19 A3008 RMK A01 T03000189  RH  051%=      5-min Rain = 0
KGO1 140037Z 08010KT 30/19 A3008 RMK A01 T03000189  RH  052%=      5-min Rain = 0
KGO1 140038Z 09010KT 30/19 A3009 RMK A01 T02990189  RH  051%=      5-min Rain = 0
KGO1 140039Z 09008KT 30/19 A3008 RMK A01 T02990190  RH  052%=      5-min Rain = 0
KGO1 140040Z 09008KT 30/19 A3008 RMK A01 T02980190  RH  052%=      5-min Rain = 0
KGO1 140041Z 08009KT 30/19 A3008 RMK A01 T02980190  RH  052%=      5-min Rain = 0
KGO1 140042Z 08008KT 30/19 A3008 RMK A01 T02980190  RH  052%=      5-min Rain = 0
KGO1 140043Z 08007KT 30/19 A3008 RMK A01 T02970190  RH  053%=      5-min Rain = 0
KGO1 140044Z 09008KT 30/19 A3008 RMK A01 T02970191  RH  053%=      5-min Rain = 0
KGO1 140045Z 09008KT 30/19 A3008 RMK A01 T02970191  RH  053%=      5-min Rain = 0
KGO1 140046Z 09008KT 30/19 A3009 RMK A01 T02960191  RH  053%=      5-min Rain = 0
KGO1 140047Z 10008KT 30/19 A3009 RMK A01 T02960191  RH  053%=      5-min Rain = 0
KGO1 140048Z 09007KT 30/19 A3009 RMK A01 T02960189  RH  053%=      5-min Rain = 0
KGO1 140049Z 09007KT 30/19 A3009 RMK A01 T02960190  RH  053%=      5-min Rain = 0
KGO1 140050Z 09009KT 30/19 A3009 RMK A01 T02960189  RH  053%=      5-min Rain = 0
KGO1 140051Z 08008KT 30/19 A3009 RMK A01 T02960190  RH  053%=      5-min Rain = 0
KGO1 140052Z 08009KT 30/19 A3009 RMK A01 T02950190  RH  053%=      5-min Rain = 0
KGO1 140053Z 09007KT 29/19 A3009 RMK A01 T02940191  RH  054%=      5-min Rain = 0
KGO1 140054Z 08007KT 29/19 A3009 RMK A01 T02940192  RH  054%=      5-min Rain = 0
KGO1 140055Z 08007KT 29/19 A3009 RMK A01 T02930192  RH  054%=      5-min Rain = 0
KGO1 140056Z 09007KT 29/19 A3009 RMK A01 T02920191  RH  054%=      5-min Rain = 0
KGO1 140057Z 09007KT 29/19 A3009 RMK A01 T02920192  RH  055%=      5-min Rain = 0
KGO1 140058Z 09007KT 29/19 A3009 RMK A01 T02920191  RH  055%=      5-min Rain = 0
KGO1 140059Z 09008KT 29/19 A3009 RMK A01 T02910191  RH  055%=      5-min Rain = 0
KGO1 140100Z 09008KT 29/19 A3009 RMK A01 T02910191  RH  055%=      5-min Rain = 0
KGO1 140101Z 09008KT 29/19 A3009 RMK A01 T02900191  RH  055%=      5-min Rain = 0
KGO1 140102Z 09009KT 29/19 A3009 RMK A01 T02900190  RH  055%=      5-min Rain = 0
KGO1 140103Z 09008KT 29/19 A3009 RMK A01 T02900190  RH  055%=      5-min Rain = 0
KGO1 140104Z 09008KT 29/19 A3009 RMK A01 T02900190  RH  055%=      5-min Rain = 0
KGO1 140105Z 09007KT 29/19 A3009 RMK A01 T02890189  RH  055%=      5-min Rain = 0
KGO1 140106Z 09008KT 29/19 A3009 RMK A01 T02890190  RH  055%=      5-min Rain = 0
KGO1 140107Z 08007KT 29/19 A3009 RMK A01 T02890190  RH  055%=      5-min Rain = 0
KGO1 140108Z 08008KT 29/19 A3009 RMK A01 T02880190  RH  055%=      5-min Rain = 0
KGO1 140109Z 08008KT 29/19 A3009 RMK A01 T02880191  RH  056%=      5-min Rain = 0
KGO1 140110Z 08007KT 29/19 A3009 RMK A01 T02870192  RH  056%=      5-min Rain = 0
KGO1 140111Z 09007KT 29/19 A301 RMK A01 T02860193  RH  057%=      5-min Rain = 0
KGO1 140112Z 09007KT 29/19 A301 RMK A01 T02850193  RH  057%=      5-min Rain = 0
KGO1 140113Z 09007KT 29/19 A301 RMK A01 T02850194  RH  058%=      5-min Rain = 0
KGO1 140114Z 09007KT 28/19 A301 RMK A01 T02840194  RH  058%=      5-min Rain = 0
KGO1 140115Z 09007KT 28/19 A301 RMK A01 T02830194  RH  058%=      5-min Rain = 0
KGO1 140116Z 09008KT 28/19 A301 RMK A01 T02830194  RH  058%=      5-min Rain = 0
KGO1 140117Z 09008KT 28/19 A301 RMK A01 T02820194  RH  059%=      5-min Rain = 0
KGO1 140118Z 09006KT 28/19 A301 RMK A01 T02820194  RH  059%=      5-min Rain = 0
KGO1 140119Z 09006KT 28/19 A301 RMK A01 T02820194  RH  059%=      5-min Rain = 0
KGO1 140120Z 08007KT 28/20 A301 RMK A01 T02810195  RH  059%=      5-min Rain = 0
KGO1 140121Z 08006KT 28/20 A301 RMK A01 T02810195  RH  060%=      5-min Rain = 0
KGO1 140122Z 08007KT 28/20 A301 RMK A01 T02800195  RH  060%=      5-min Rain = 0
KGO1 140123Z 08005KT 28/20 A301 RMK A01 T02790195  RH  060%=      5-min Rain = 0
KGO1 140124Z 09005KT 28/20 A301 RMK A01 T02780195  RH  061%=      5-min Rain = 0
KGO1 140125Z 08006KT 28/20 A301 RMK A01 T02770195  RH  061%=      5-min Rain = 0
KGO1 140126Z 09007KT 28/20 A301 RMK A01 T02760195  RH  061%=      5-min Rain = 0
KGO1 140127Z 09006KT 28/20 A301 RMK A01 T02760196  RH  061%=      5-min Rain = 0
KGO1 140128Z 09006KT 28/20 A301 RMK A01 T02760196  RH  062%=      5-min Rain = 0
KGO1 140129Z 09005KT 28/20 A3011 RMK A01 T02760197  RH  062%=      5-min Rain = 0
KGO1 140130Z 09006KT 28/20 A3011 RMK A01 T02750197  RH  063%=      5-min Rain = 0
KGO1 140131Z 09006KT 27/20 A3011 RMK A01 T02730197  RH  063%=      5-min Rain = 0
KGO1 140132Z 09006KT 27/20 A3011 RMK A01 T02730197  RH  063%=      5-min Rain = 0
KGO1 140133Z 09005KT 27/20 A3011 RMK A01 T02720197  RH  063%=      5-min Rain = 0
KGO1 140134Z 09007KT 27/20 A3011 RMK A01 T02720198  RH  064%=      5-min Rain = 0
KGO1 140135Z 09007KT 27/20 A3011 RMK A01 T02720197  RH  064%=      5-min Rain = 0
KGO1 140136Z 09005KT 27/20 A3011 RMK A01 T02720197  RH  064%=      5-min Rain = 0
KGO1 140137Z 09007KT 27/20 A3011 RMK A01 T02710198  RH  064%=      5-min Rain = 0
KGO1 140138Z 09006KT 27/20 A3011 RMK A01 T02700197  RH  064%=      5-min Rain = 0
KGO1 140139Z 10007KT 27/20 A3011 RMK A01 T02700198  RH  065%=      5-min Rain = 0
KGO1 140140Z 10006KT 27/20 A3011 RMK A01 T02690198  RH  065%=      5-min Rain = 0
KGO1 140141Z 10006KT 27/20 A3011 RMK A01 T02690198  RH  065%=      5-min Rain = 0
KGO1 140142Z 10007KT 27/20 A3011 RMK A01 T02690198  RH  065%=      5-min Rain = 0
KGO1 140143Z 09006KT 27/20 A3011 RMK A01 T02680198  RH  065%=      5-min Rain = 0
KGO1 140144Z 10007KT 27/20 A3011 RMK A01 T02670197  RH  065%=      5-min Rain = 0
KGO1 140145Z 09007KT 27/20 A3011 RMK A01 T02670197  RH  066%=      5-min Rain = 0
KGO1 140146Z 09006KT 27/20 A3011 RMK A01 T02670197  RH  066%=      5-min Rain = 0
KGO1 140147Z 09007KT 27/20 A3011 RMK A01 T02670197  RH  066%=      5-min Rain = 0
KGO1 140148Z 09006KT 27/20 A3011 RMK A01 T02660197  RH  066%=      5-min Rain = 0
KGO1 140149Z 09007KT 27/20 A3011 RMK A01 T02660198  RH  066%=      5-min Rain = 0
KGO1 140150Z 10006KT 27/20 A3012 RMK A01 T02660198  RH  066%=      5-min Rain = 0
KGO1 140151Z 09006KT 27/20 A3012 RMK A01 T02650198  RH  067%=      5-min Rain = 0
KGO1 140152Z 10006KT 26/20 A3012 RMK A01 T02640198  RH  067%=      5-min Rain = 0
KGO1 140153Z 10006KT 26/20 A3012 RMK A01 T02630198  RH  067%=      5-min Rain = 0
KGO1 140154Z 10006KT 26/20 A3012 RMK A01 T02630198  RH  068%=      5-min Rain = 0
KGO1 140155Z 10006KT 26/20 A3012 RMK A01 T02620198  RH  068%=      5-min Rain = 0
KGO1 140156Z 09006KT 26/20 A3012 RMK A01 T02610198  RH  068%=      5-min Rain = 0
KGO1 140157Z 10006KT 26/20 A3012 RMK A01 T02610199  RH  069%=      5-min Rain = 0
KGO1 140158Z 09006KT 26/20 A3012 RMK A01 T02600199  RH  069%=      5-min Rain = 0
KGO1 140159Z 09006KT 26/20 A3012 RMK A01 T02600199  RH  069%=      5-min Rain = 0
KGO1 140200Z 09006KT 26/20 A3012 RMK A01 T02590198  RH  069%=      5-min Rain = 0
KGO1 140201Z 09006KT 26/20 A3012 RMK A01 T02590198  RH  069%=      5-min Rain = 0
KGO1 140202Z 09006KT 26/20 A3012 RMK A01 T02590198  RH  069%=      5-min Rain = 0
KGO1 140203Z 09006KT 26/20 A3012 RMK A01 T02600198  RH  069%=      5-min Rain = 0
KGO1 140204Z 09006KT 26/20 A3012 RMK A01 T02600198  RH  069%=      5-min Rain = 0
KGO1 140205Z 09005KT 26/20 A3013 RMK A01 T02600199  RH  069%=      5-min Rain = 0
KGO1 140206Z 08006KT 26/20 A3013 RMK A01 T02600199  RH  069%=      5-min Rain = 0
KGO1 140207Z 09006KT 26/20 A3013 RMK A01 T02600199  RH  069%=      5-min Rain = 0
KGO1 140208Z 08005KT 26/20 A3013 RMK A01 T02600199  RH  069%=      5-min Rain = 0
KGO1 140209Z 08005KT 26/20 A3013 RMK A01 T02600199  RH  069%=      5-min Rain = 0
KGO1 140210Z 08005KT 26/20 A3013 RMK A01 T02590199  RH  069%=      5-min Rain = 0
KGO1 140211Z 08005KT 26/20 A3013 RMK A01 T02590199  RH  070%=      5-min Rain = 0
KGO1 140212Z 08005KT 26/20 A3013 RMK A01 T02580199  RH  070%=      5-min Rain = 0
KGO1 140213Z 08006KT 26/20 A3014 RMK A01 T02580199  RH  070%=      5-min Rain = 0
KGO1 140214Z 08005KT 26/20 A3014 RMK A01 T02580199  RH  070%=      5-min Rain = 0
KGO1 140215Z 08006KT 26/20 A3014 RMK A01 T02580199  RH  070%=      5-min Rain = 0
KGO1 140216Z 09006KT 26/20 A3014 RMK A01 T02580199  RH  070%=      5-min Rain = 0
KGO1 140217Z 09006KT 26/20 A3014 RMK A01 T02580200  RH  070%=      5-min Rain = 0
KGO1 140218Z 09006KT 26/20 A3014 RMK A01 T02580199  RH  070%=      5-min Rain = 0
KGO1 140219Z 08006KT 26/20 A3014 RMK A01 T02580199  RH  070%=      5-min Rain = 0
KGO1 140220Z 09006KT 26/20 A3014 RMK A01 T02570199  RH  070%=      5-min Rain = 0
KGO1 140221Z 08006KT 26/20 A3014 RMK A01 T02570199  RH  070%=      5-min Rain = 0
KGO1 140222Z 09006KT 26/20 A3014 RMK A01 T02570199  RH  071%=      5-min Rain = 0
KGO1 140223Z 09005KT 26/20 A3014 RMK A01 T02570200  RH  071%=      5-min Rain = 0
KGO1 140224Z 09005KT 26/20 A3014 RMK A01 T02560200  RH  071%=      5-min Rain = 0
KGO1 140225Z 08005KT 26/20 A3014 RMK A01 T02560200  RH  071%=      5-min Rain = 0
KGO1 140226Z 08005KT 26/20 A3014 RMK A01 T02560200  RH  071%=      5-min Rain = 0
KGO1 140227Z 08005KT 26/20 A3014 RMK A01 T02560200  RH  071%=      5-min Rain = 0
KGO1 140228Z 09005KT 26/20 A3014 RMK A01 T02550200  RH  072%=      5-min Rain = 0
KGO1 140229Z 08005KT 25/20 A3014 RMK A01 T02540200  RH  072%=      5-min Rain = 0
KGO1 140230Z 08005KT 25/20 A3014 RMK A01 T02540200  RH  072%=      5-min Rain = 0
KGO1 140231Z 09005KT 25/20 A3014 RMK A01 T02540200  RH  072%=      5-min Rain = 0
KGO1 140232Z 09005KT 25/20 A3014 RMK A01 T02540200  RH  072%=      5-min Rain = 0
KGO1 140233Z 09005KT 25/20 A3014 RMK A01 T02530200  RH  072%=      5-min Rain = 0
KGO1 140234Z 09005KT 25/20 A3014 RMK A01 T02530200  RH  072%=      5-min Rain = 0
KGO1 140235Z 09006KT 25/20 A3014 RMK A01 T02530200  RH  072%=      5-min Rain = 0
KGO1 140236Z 09006KT 25/20 A3014 RMK A01 T02520199  RH  072%=      5-min Rain = 0
KGO1 140237Z 09006KT 25/20 A3014 RMK A01 T02530200  RH  072%=      5-min Rain = 0
KGO1 140238Z 09006KT 25/20 A3014 RMK A01 T02520200  RH  073%=      5-min Rain = 0
KGO1 140239Z 09006KT 25/20 A3014 RMK A01 T02510199  RH  073%=      5-min Rain = 0
KGO1 140240Z 10006KT 25/20 A3014 RMK A01 T02510200  RH  073%=      5-min Rain = 0
KGO1 140241Z 10006KT 25/20 A3014 RMK A01 T02510200  RH  073%=      5-min Rain = 0
KGO1 140242Z 10007KT 25/20 A3014 RMK A01 T02500200  RH  074%=      5-min Rain = 0
KGO1 140243Z 10007KT 25/20 A3014 RMK A01 T02500200  RH  074%=      5-min Rain = 0
KGO1 140244Z 10007KT 25/20 A3014 RMK A01 T02490199  RH  074%=      5-min Rain = 0
KGO1 140245Z 11007KT 25/20 A3014 RMK A01 T02490199  RH  074%=      5-min Rain = 0
KGO1 140246Z 10007KT 25/20 A3014 RMK A01 T02490199  RH  074%=      5-min Rain = 0
KGO1 140247Z 10007KT 25/20 A3014 RMK A01 T02490199  RH  074%=      5-min Rain = 0
KGO1 140248Z 11007KT 25/20 A3014 RMK A01 T02490199  RH  074%=      5-min Rain = 0
KGO1 140249Z 11007KT 25/20 A3014 RMK A01 T02490200  RH  074%=      5-min Rain = 0
KGO1 140250Z 11006KT 25/20 A3014 RMK A01 T02480200  RH  075%=      5-min Rain = 0
KGO1 140251Z 11006KT 25/20 A3014 RMK A01 T02470200  RH  075%=      5-min Rain = 0
KGO1 140252Z 11006KT 25/20 A3014 RMK A01 T02460200  RH  076%=      5-min Rain = 0
KGO1 140253Z 11006KT 25/20 A3014 RMK A01 T02450200  RH  076%=      5-min Rain = 0
KGO1 140254Z 12006KT 24/20 A3014 RMK A01 T02430200  RH  077%=      5-min Rain = 0
KGO1 140255Z 12005KT 24/20 A3014 RMK A01 T02420200  RH  077%=      5-min Rain = 0
KGO1 140256Z 12005KT 24/20 A3014 RMK A01 T02410199  RH  077%=      5-min Rain = 0
KGO1 140257Z 12005KT 24/20 A3014 RMK A01 T02410200  RH  078%=      5-min Rain = 0
KGO1 140258Z 12005KT 24/20 A3014 RMK A01 T02400200  RH  078%=      5-min Rain = 0
KGO1 140259Z 13005KT 24/20 A3014 RMK A01 T02390200  RH  079%=      5-min Rain = 0
KGO1 140300Z 12005KT 24/20 A3014 RMK A01 T02390200  RH  079%=      5-min Rain = 0
KGO1 140301Z 12005KT 24/20 A3014 RMK A01 T02380199  RH  079%=      5-min Rain = 0
KGO1 140302Z 12006KT 24/20 A3014 RMK A01 T02380199  RH  079%=      5-min Rain = 0
KGO1 140303Z 12006KT 24/20 A3014 RMK A01 T02380199  RH  079%=      5-min Rain = 0
KGO1 140304Z 12006KT 24/20 A3014 RMK A01 T02370199  RH  079%=      5-min Rain = 0
KGO1 140305Z 12006KT 24/20 A3014 RMK A01 T02370198  RH  079%=      5-min Rain = 0
KGO1 140306Z 12006KT 24/20 A3014 RMK A01 T02380198  RH  078%=      5-min Rain = 0
KGO1 140307Z 11005KT 24/20 A3015 RMK A01 T02370197  RH  078%=      5-min Rain = 0
KGO1 140308Z 11005KT 24/20 A3015 RMK A01 T02380197  RH  078%=      5-min Rain = 0
KGO1 140309Z 11005KT 24/20 A3015 RMK A01 T02370197  RH  078%=      5-min Rain = 0
KGO1 140310Z 11004KT 24/20 A3015 RMK A01 T02380196  RH  078%=      5-min Rain = 0
KGO1 140311Z 10004KT 24/20 A3015 RMK A01 T02380196  RH  077%=      5-min Rain = 0
KGO1 140312Z 11004KT 24/20 A3015 RMK A01 T02380196  RH  077%=      5-min Rain = 0
KGO1 140313Z 11004KT 24/20 A3015 RMK A01 T02380196  RH  077%=      5-min Rain = 0
KGO1 140314Z 10005KT 24/20 A3015 RMK A01 T02390196  RH  077%=      5-min Rain = 0
KGO1 140315Z 10005KT 24/20 A3015 RMK A01 T02390196  RH  077%=      5-min Rain = 0
KGO1 140316Z 11004KT 24/20 A3015 RMK A01 T02390196  RH  077%=      5-min Rain = 0
KGO1 140317Z 11005KT 24/20 A3015 RMK A01 T02400197  RH  077%=      5-min Rain = 0
KGO1 140318Z 11005KT 24/20 A3015 RMK A01 T02400197  RH  077%=      5-min Rain = 0
KGO1 140319Z 10005KT 24/20 A3015 RMK A01 T02390196  RH  077%=      5-min Rain = 0
KGO1 140320Z 10005KT 24/20 A3015 RMK A01 T02390196  RH  077%=      5-min Rain = 0
KGO1 140321Z 10005KT 24/20 A3015 RMK A01 T02400196  RH  076%=      5-min Rain = 0
KGO1 140322Z 10005KT 24/20 A3015 RMK A01 T02400196  RH  076%=      5-min Rain = 0
KGO1 140323Z 10005KT 24/20 A3015 RMK A01 T02410196  RH  076%=      5-min Rain = 0
KGO1 140324Z 10005KT 24/20 A3015 RMK A01 T02410196  RH  076%=      5-min Rain = 0
KGO1 140325Z 10005KT 24/20 A3015 RMK A01 T02410196  RH  076%=      5-min Rain = 0
KGO1 140326Z 10005KT 24/20 A3015 RMK A01 T02410196  RH  076%=      5-min Rain = 0
KGO1 140327Z 10005KT 24/20 A3016 RMK A01 T02410196  RH  076%=      5-min Rain = 0
KGO1 140328Z 10004KT 24/20 A3016 RMK A01 T02400196  RH  076%=      5-min Rain = 0
KGO1 140329Z 09004KT 24/20 A3016 RMK A01 T02400196  RH  076%=      5-min Rain = 0
KGO1 140330Z 10004KT 24/20 A3016 RMK A01 T02400196  RH  077%=      5-min Rain = 0
KGO1 140331Z 09004KT 24/20 A3016 RMK A01 T02390196  RH  077%=      5-min Rain = 0
KGO1 140332Z 10004KT 24/20 A3016 RMK A01 T02390196  RH  077%=      5-min Rain = 0
KGO1 140333Z 10004KT 24/20 A3016 RMK A01 T02390197  RH  077%=      5-min Rain = 0
KGO1 140334Z 10004KT 24/20 A3016 RMK A01 T02380196  RH  077%=      5-min Rain = 0
KGO1 140335Z 10004KT 24/20 A3016 RMK A01 T02380196  RH  077%=      5-min Rain = 0
KGO1 140336Z 10004KT 24/20 A3016 RMK A01 T02380196  RH  077%=      5-min Rain = 0
KGO1 140337Z 11004KT 24/20 A3016 RMK A01 T02380196  RH  077%=      5-min Rain = 0
KGO1 140338Z 11004KT 24/20 A3016 RMK A01 T02380196  RH  077%=      5-min Rain = 0
KGO1 140339Z 11004KT 24/20 A3016 RMK A01 T02380197  RH  078%=      5-min Rain = 0
KGO1 140340Z 10004KT 24/20 A3016 RMK A01 T02380197  RH  078%=      5-min Rain = 0
KGO1 140341Z 11004KT 24/20 A3016 RMK A01 T02370198  RH  079%=      5-min Rain = 0
KGO1 140342Z 11004KT 24/20 A3016 RMK A01 T02370198  RH  079%=      5-min Rain = 0
KGO1 140343Z 10004KT 24/20 A3016 RMK A01 T02360198  RH  079%=      5-min Rain = 0
KGO1 140344Z 10005KT 24/20 A3016 RMK A01 T02350198  RH  080%=      5-min Rain = 0
KGO1 140345Z 10004KT 24/20 A3016 RMK A01 T02350198  RH  080%=      5-min Rain = 0
KGO1 140346Z 10004KT 24/20 A3016 RMK A01 T02350198  RH  080%=      5-min Rain = 0
KGO1 140347Z 09004KT 23/20 A3016 RMK A01 T02340198  RH  080%=      5-min Rain = 0
KGO1 140348Z 09004KT 23/20 A3016 RMK A01 T02340198  RH  080%=      5-min Rain = 0
KGO1 140349Z 09003KT 23/20 A3016 RMK A01 T02340198  RH  080%=      5-min Rain = 0
KGO1 140350Z 09004KT 23/20 A3016 RMK A01 T02340197  RH  080%=      5-min Rain = 0
KGO1 140351Z 09004KT 23/20 A3016 RMK A01 T02340196  RH  079%=      5-min Rain = 0
KGO1 140352Z 09004KT 24/20 A3016 RMK A01 T02350197  RH  079%=      5-min Rain = 0
KGO1 140353Z 10004KT 24/20 A3017 RMK A01 T02350197  RH  079%=      5-min Rain = 0
KGO1 140354Z 10004KT 24/20 A3017 RMK A01 T02350197  RH  079%=      5-min Rain = 0
KGO1 140355Z 11004KT 23/20 A3017 RMK A01 T02340197  RH  079%=      5-min Rain = 0
KGO1 140356Z 11005KT 23/20 A3017 RMK A01 T02340198  RH  080%=      5-min Rain = 0
KGO1 140357Z 12005KT 23/20 A3017 RMK A01 T02330199  RH  081%=      5-min Rain = 0
KGO1 140358Z 12005KT 23/20 A3017 RMK A01 T02320199  RH  082%=      5-min Rain = 0
KGO1 140359Z 12006KT 23/20 A3017 RMK A01 T02310199  RH  082%=      5-min Rain = 0
KGO1 140400Z 12005KT 23/20 A3017 RMK A01 T02310199  RH  082%=      5-min Rain = 0
KGO1 140401Z 13005KT 23/20 A3017 RMK A01 T02310199  RH  082%=      5-min Rain = 0
KGO1 140402Z 13005KT 23/20 A3017 RMK A01 T02310199  RH  083%=      5-min Rain = 0
KGO1 140403Z 13005KT 23/20 A3017 RMK A01 T02300200  RH  083%=      5-min Rain = 0
KGO1 140404Z 13006KT 23/20 A3017 RMK A01 T02300200  RH  083%=      5-min Rain = 0
KGO1 140405Z 13006KT 23/20 A3017 RMK A01 T02300198  RH  082%=      5-min Rain = 0
KGO1 140406Z 14006KT 23/20 A3017 RMK A01 T02300198  RH  082%=      5-min Rain = 0
KGO1 140407Z 14006KT 23/20 A3017 RMK A01 T02300198  RH  082%=      5-min Rain = 0
KGO1 140408Z 13006KT 23/20 A3017 RMK A01 T02290197  RH  082%=      5-min Rain = 0
KGO1 140409Z 13006KT 23/20 A3017 RMK A01 T02290197  RH  082%=      5-min Rain = 0
KGO1 140410Z 13006KT 23/20 A3017 RMK A01 T02290197  RH  082%=      5-min Rain = 0
KGO1 140411Z 13006KT 23/20 A3017 RMK A01 T02300197  RH  082%=      5-min Rain = 0
KGO1 140412Z 12007KT 23/20 A3017 RMK A01 T02300197  RH  082%=      5-min Rain = 0
KGO1 140413Z 12006KT 23/20 A3017 RMK A01 T02300197  RH  082%=      5-min Rain = 0
KGO1 140414Z 12006KT 23/20 A3017 RMK A01 T02300197  RH  082%=      5-min Rain = 0
KGO1 140415Z 11006KT 23/20 A3017 RMK A01 T02300196  RH  081%=      5-min Rain = 0
KGO1 140416Z 11006KT 23/20 A3017 RMK A01 T02310196  RH  081%=      5-min Rain = 0
KGO1 140417Z 10006KT 23/20 A3017 RMK A01 T02310195  RH  080%=      5-min Rain = 0
KGO1 140418Z 10006KT 23/20 A3017 RMK A01 T02320195  RH  080%=      5-min Rain = 0
KGO1 140419Z 10006KT 23/19 A3017 RMK A01 T02330194  RH  079%=      5-min Rain = 0
KGO1 140420Z 10006KT 24/19 A3017 RMK A01 T02350194  RH  078%=      5-min Rain = 0
KGO1 140421Z 10006KT 24/19 A3017 RMK A01 T02350194  RH  078%=      5-min Rain = 0
KGO1 140422Z 11006KT 24/19 A3017 RMK A01 T02360194  RH  077%=      5-min Rain = 0
KGO1 140423Z 11006KT 24/19 A3017 RMK A01 T02370193  RH  077%=      5-min Rain = 0
KGO1 140424Z 11006KT 24/19 A3017 RMK A01 T02370193  RH  077%=      5-min Rain = 0
KGO1 140425Z 11006KT 24/20 A3017 RMK A01 T02370195  RH  077%=      5-min Rain = 0
KGO1 140426Z 11006KT 24/19 A3017 RMK A01 T02360194  RH  077%=      5-min Rain = 0
KGO1 140427Z 12006KT 24/19 A3017 RMK A01 T02360194  RH  077%=      5-min Rain = 0
KGO1 140428Z 12005KT 24/19 A3017 RMK A01 T02350194  RH  078%=      5-min Rain = 0
KGO1 140429Z 11005KT 23/19 A3017 RMK A01 T02340194  RH  078%=      5-min Rain = 0
KGO1 140430Z 12005KT 23/19 A3017 RMK A01 T02340194  RH  078%=      5-min Rain = 0
KGO1 140431Z 11005KT 23/19 A3017 RMK A01 T02340194  RH  078%=      5-min Rain = 0
KGO1 140432Z 12005KT 23/19 A3017 RMK A01 T02330193  RH  079%=      5-min Rain = 0
KGO1 140433Z 11005KT 23/19 A3018 RMK A01 T02320193  RH  079%=      5-min Rain = 0
KGO1 140434Z 11004KT 23/19 A3018 RMK A01 T02320193  RH  079%=      5-min Rain = 0
KGO1 140435Z 12004KT 23/19 A3018 RMK A01 T02320193  RH  079%=      5-min Rain = 0
KGO1 140436Z 11005KT 23/19 A3018 RMK A01 T02310193  RH  079%=      5-min Rain = 0
KGO1 140437Z 11005KT 23/19 A3018 RMK A01 T02310193  RH  079%=      5-min Rain = 0
KGO1 140438Z 11005KT 23/19 A3018 RMK A01 T02310193  RH  079%=      5-min Rain = 0
KGO1 140439Z 11005KT 23/19 A3018 RMK A01 T02310193  RH  079%=      5-min Rain = 0
KGO1 140440Z 11005KT 23/19 A3018 RMK A01 T02310193  RH  079%=      5-min Rain = 0
KGO1 140441Z 11005KT 23/19 A3018 RMK A01 T02300193  RH  080%=      5-min Rain = 0
KGO1 140442Z 10005KT 23/19 A3018 RMK A01 T02300194  RH  080%=      5-min Rain = 0
KGO1 140443Z 10005KT 23/19 A3018 RMK A01 T02300194  RH  080%=      5-min Rain = 0
KGO1 140444Z 10004KT 23/19 A3018 RMK A01 T02290194  RH  081%=      5-min Rain = 0
KGO1 140445Z 09004KT 23/19 A3018 RMK A01 T02280194  RH  081%=      5-min Rain = 0
KGO1 140446Z 09003KT 23/19 A3018 RMK A01 T02280194  RH  081%=      5-min Rain = 0
KGO1 140447Z 08003KT 23/19 A3019 RMK A01 T02280194  RH  081%=      5-min Rain = 0
KGO1 140448Z 08003KT 23/19 A3019 RMK A01 T02280193  RH  081%=      5-min Rain = 0
KGO1 140449Z 07003KT 23/19 A3019 RMK A01 T02280193  RH  081%=      5-min Rain = 0
KGO1 140450Z 08003KT 23/19 A3019 RMK A01 T02280192  RH  080%=      5-min Rain = 0
KGO1 140451Z 08004KT 23/19 A3019 RMK A01 T02280193  RH  080%=      5-min Rain = 0
KGO1 140452Z 07004KT 23/19 A3019 RMK A01 T02290193  RH  080%=      5-min Rain = 0
KGO1 140453Z 07004KT 23/19 A3019 RMK A01 T02300194  RH  080%=      5-min Rain = 0
KGO1 140454Z 07005KT 23/19 A3019 RMK A01 T02290193  RH  080%=      5-min Rain = 0
KGO1 140455Z 07005KT 23/19 A3019 RMK A01 T02300194  RH  080%=      5-min Rain = 0
KGO1 140456Z 07006KT 23/20 A3019 RMK A01 T02300195  RH  081%=      5-min Rain = 0
KGO1 140457Z 07006KT 23/20 A302 RMK A01 T02310196  RH  081%=      5-min Rain = 0
KGO1 140458Z 07006KT 23/20 A302 RMK A01 T02310196  RH  080%=      5-min Rain = 0
KGO1 140459Z 07006KT 23/20 A302 RMK A01 T02320196  RH  080%=      5-min Rain = 0

Page generated in 0.0718 seconds.